<?xml version="1.0" encoding="UTF-8"?>
<gpx version="1.1" creator="2bulu-scraper" xmlns="http://www.topografix.com/GPX/1/1">
  <metadata><name>大瓦山(登顶版)</name><desc>source: 2bulu.com trackId=74945875; exported 2026-09-01T15:58:32.920Z</desc>
    <bounds minlat="29.3429564" minlon="103.0159213" maxlat="29.3733759" maxlon="103.0328166"/>
    <link href="https://www.2bulu.com/track/t-o21%252BVKSaUr3p%252FR2KBg5Tzw%253D%253D.htm"><text>2bulu 源页面</text></link>
  </metadata>
  <wpt lat="29.36732" lon="103.0199683"><ele>2168</ele><name>
        </name></wpt>
  <wpt lat="29.36732" lon="103.0199683"><ele>2168</ele><name>
        </name></wpt>
  <wpt lat="29.3667294" lon="103.0167432"><ele>2342</ele><name>
        </name></wpt>
  <wpt lat="29.3671379" lon="103.015996"><ele>2406</ele><name>平台
        </name></wpt>
  <wpt lat="29.3671379" lon="103.015996"><ele>2406</ele><name>
        </name></wpt>
  <wpt lat="29.3671379" lon="103.015996"><ele>2407</ele><name>
        </name></wpt>
  <wpt lat="29.3671379" lon="103.015996"><ele>2407</ele><name>
        </name></wpt>
  <wpt lat="29.3660729" lon="103.0161457"><ele>2417</ele><name>
        </name></wpt>
  <wpt lat="29.3631025" lon="103.0188806"><ele>2444</ele><name>左转开始爬升
        </name></wpt>
  <wpt lat="29.3626918" lon="103.0189572"><ele>2447</ele><name>
        </name></wpt>
  <wpt lat="29.3612939" lon="103.0193353"><ele>2479</ele><name>
        </name></wpt>
  <wpt lat="29.3582172" lon="103.0198593"><ele>2599</ele><name>前方开始易滑路段
        </name></wpt>
  <wpt lat="29.3586521" lon="103.0192184"><ele>2617</ele><name>
        </name></wpt>
  <wpt lat="29.3583946" lon="103.0185623"><ele>2622</ele><name>
        </name></wpt>
  <wpt lat="29.3582058" lon="103.0185242"><ele>2622</ele><name>第一个天梯
        </name></wpt>
  <wpt lat="29.3580647" lon="103.018486"><ele>2610</ele><name>很多红牛罐子
        </name></wpt>
  <wpt lat="29.3579509" lon="103.0186387"><ele>2811</ele><name>
        </name></wpt>
  <wpt lat="29.3577194" lon="103.0185776"><ele>2599</ele><name>视野开阔
        </name></wpt>
  <wpt lat="29.3571015" lon="103.0189214"><ele>2912</ele><name>
        </name></wpt>
  <wpt lat="29.3549938" lon="103.0203018"><ele>2597</ele><name>
        </name></wpt>
  <wpt lat="29.3548302" lon="103.0202846"><ele>2984</ele><name>翻上山脊
        </name></wpt>
  <wpt lat="29.3533962" lon="103.0195164"><ele>3053</ele><name>
        </name></wpt>
  <wpt lat="29.35309" lon="103.0196048"><ele>3078</ele><name>
        </name></wpt>
  <wpt lat="29.3503036" lon="103.0216599"><ele>2826</ele><name>观景平台
        </name></wpt>
  <wpt lat="29.3503036" lon="103.0216599"><ele>2826</ele><name>
        </name></wpt>
  <wpt lat="29.3430119" lon="103.0247269"><ele>3199</ele><name>终点寺庙
        </name></wpt>
  <trk><name>大瓦山(登顶版)</name>
      <trkseg>
        <trkpt lat="29.3733759" lon="103.0328166"><ele>1863.49</ele><time>2025-11-21T16:27:38.000Z</time></trkpt>
        <trkpt lat="29.3733159" lon="103.0327364"><ele>1863.49</ele><time>2025-11-21T16:27:44.000Z</time></trkpt>
        <trkpt lat="29.3732408" lon="103.0326525"><ele>1854.92</ele><time>2025-11-21T16:27:54.000Z</time></trkpt>
        <trkpt lat="29.3731867" lon="103.0325636"><ele>1848.29</ele><time>2025-11-21T16:28:02.000Z</time></trkpt>
        <trkpt lat="29.3731456" lon="103.0324501"><ele>1844.52</ele><time>2025-11-21T16:28:12.000Z</time></trkpt>
        <trkpt lat="29.3731211" lon="103.0323359"><ele>1842.43</ele><time>2025-11-21T16:28:22.000Z</time></trkpt>
        <trkpt lat="29.3731086" lon="103.032213"><ele>1841.02</ele><time>2025-11-21T16:28:32.000Z</time></trkpt>
        <trkpt lat="29.3731099" lon="103.0321029"><ele>1839.81</ele><time>2025-11-21T16:28:40.000Z</time></trkpt>
        <trkpt lat="29.3731062" lon="103.0319981"><ele>1839.12</ele><time>2025-11-21T16:28:48.000Z</time></trkpt>
        <trkpt lat="29.3730772" lon="103.0318971"><ele>1838.72</ele><time>2025-11-21T16:28:56.000Z</time></trkpt>
        <trkpt lat="29.3730226" lon="103.0318011"><ele>1838.66</ele><time>2025-11-21T16:29:04.000Z</time></trkpt>
        <trkpt lat="29.3729552" lon="103.0317186"><ele>1839.14</ele><time>2025-11-21T16:29:12.000Z</time></trkpt>
        <trkpt lat="29.3728728" lon="103.0316604"><ele>1839.97</ele><time>2025-11-21T16:29:20.000Z</time></trkpt>
        <trkpt lat="29.3727926" lon="103.0315827"><ele>1840.45</ele><time>2025-11-21T16:29:28.000Z</time></trkpt>
        <trkpt lat="29.3727071" lon="103.0315173"><ele>1840.61</ele><time>2025-11-21T16:29:36.000Z</time></trkpt>
        <trkpt lat="29.3726111" lon="103.0314926"><ele>1841.06</ele><time>2025-11-21T16:29:44.000Z</time></trkpt>
        <trkpt lat="29.3725131" lon="103.031502"><ele>1841.5</ele><time>2025-11-21T16:29:52.000Z</time></trkpt>
        <trkpt lat="29.3724151" lon="103.031536"><ele>1842.97</ele><time>2025-11-21T16:30:00.000Z</time></trkpt>
        <trkpt lat="29.3723197" lon="103.0315697"><ele>1845.15</ele><time>2025-11-21T16:30:08.000Z</time></trkpt>
        <trkpt lat="29.372233" lon="103.0316345"><ele>1845.85</ele><time>2025-11-21T16:30:16.000Z</time></trkpt>
        <trkpt lat="29.372147" lon="103.0316915"><ele>1846.24</ele><time>2025-11-21T16:30:28.000Z</time></trkpt>
        <trkpt lat="29.372071" lon="103.031756"><ele>1845.1</ele><time>2025-11-21T16:30:34.000Z</time></trkpt>
        <trkpt lat="29.3719759" lon="103.0318209"><ele>1845.14</ele><time>2025-11-21T16:30:42.000Z</time></trkpt>
        <trkpt lat="29.371881" lon="103.0318646"><ele>1846.51</ele><time>2025-11-21T16:30:50.000Z</time></trkpt>
        <trkpt lat="29.3717901" lon="103.0318585"><ele>1847.53</ele><time>2025-11-21T16:30:58.000Z</time></trkpt>
        <trkpt lat="29.3717046" lon="103.0318186"><ele>1848.18</ele><time>2025-11-21T16:31:06.000Z</time></trkpt>
        <trkpt lat="29.3716237" lon="103.0317632"><ele>1848.68</ele><time>2025-11-21T16:31:12.000Z</time></trkpt>
        <trkpt lat="29.371552" lon="103.03168"><ele>1849.67</ele><time>2025-11-21T16:31:20.000Z</time></trkpt>
        <trkpt lat="29.3715013" lon="103.0315833"><ele>1850.72</ele><time>2025-11-21T16:31:30.000Z</time></trkpt>
        <trkpt lat="29.3714338" lon="103.0314955"><ele>1850.6</ele><time>2025-11-21T16:31:36.000Z</time></trkpt>
        <trkpt lat="29.3713517" lon="103.0314085"><ele>1851.67</ele><time>2025-11-21T16:31:46.000Z</time></trkpt>
        <trkpt lat="29.3712724" lon="103.0313264"><ele>1852.53</ele><time>2025-11-21T16:31:54.000Z</time></trkpt>
        <trkpt lat="29.3712051" lon="103.0312414"><ele>1853.48</ele><time>2025-11-21T16:32:00.000Z</time></trkpt>
        <trkpt lat="29.3711419" lon="103.0311635"><ele>1853.54</ele><time>2025-11-21T16:32:06.000Z</time></trkpt>
        <trkpt lat="29.3710661" lon="103.0310984"><ele>1853.99</ele><time>2025-11-21T16:32:14.000Z</time></trkpt>
        <trkpt lat="29.3709788" lon="103.0310651"><ele>1854.34</ele><time>2025-11-21T16:32:20.000Z</time></trkpt>
        <trkpt lat="29.3708765" lon="103.0310351"><ele>1854.04</ele><time>2025-11-21T16:32:28.000Z</time></trkpt>
        <trkpt lat="29.3707681" lon="103.0309986"><ele>1853.72</ele><time>2025-11-21T16:32:36.000Z</time></trkpt>
        <trkpt lat="29.3706707" lon="103.0309645"><ele>1854.21</ele><time>2025-11-21T16:32:44.000Z</time></trkpt>
        <trkpt lat="29.3705804" lon="103.0309392"><ele>1854.35</ele><time>2025-11-21T16:32:52.000Z</time></trkpt>
        <trkpt lat="29.3704816" lon="103.0309208"><ele>1854.74</ele><time>2025-11-21T16:33:00.000Z</time></trkpt>
        <trkpt lat="29.3703866" lon="103.0308952"><ele>1855.4</ele><time>2025-11-21T16:33:08.000Z</time></trkpt>
        <trkpt lat="29.3702952" lon="103.0308891"><ele>1855.73</ele><time>2025-11-21T16:33:14.000Z</time></trkpt>
        <trkpt lat="29.3702163" lon="103.0309343"><ele>1856.87</ele><time>2025-11-21T16:33:22.000Z</time></trkpt>
        <trkpt lat="29.3701529" lon="103.0310258"><ele>1858.12</ele><time>2025-11-21T16:33:32.000Z</time></trkpt>
        <trkpt lat="29.3701051" lon="103.0311266"><ele>1858.39</ele><time>2025-11-21T16:33:40.000Z</time></trkpt>
        <trkpt lat="29.3700274" lon="103.0311755"><ele>1860.26</ele><time>2025-11-21T16:33:48.000Z</time></trkpt>
        <trkpt lat="29.3699373" lon="103.0311728"><ele>1861.26</ele><time>2025-11-21T16:33:56.000Z</time></trkpt>
        <trkpt lat="29.3698528" lon="103.0311206"><ele>1861.23</ele><time>2025-11-21T16:34:04.000Z</time></trkpt>
        <trkpt lat="29.3698173" lon="103.0310198"><ele>1862.46</ele><time>2025-11-21T16:34:12.000Z</time></trkpt>
        <trkpt lat="29.3698345" lon="103.0308991"><ele>1863.85</ele><time>2025-11-21T16:34:22.000Z</time></trkpt>
        <trkpt lat="29.3698829" lon="103.030781"><ele>1863.82</ele><time>2025-11-21T16:34:30.000Z</time></trkpt>
        <trkpt lat="29.3699147" lon="103.0306532"><ele>1864.3</ele><time>2025-11-21T16:34:38.000Z</time></trkpt>
        <trkpt lat="29.3699506" lon="103.030527"><ele>1865.56</ele><time>2025-11-21T16:34:46.000Z</time></trkpt>
        <trkpt lat="29.3699882" lon="103.0304107"><ele>1866.1</ele><time>2025-11-21T16:34:54.000Z</time></trkpt>
        <trkpt lat="29.3700491" lon="103.0303181"><ele>1867.09</ele><time>2025-11-21T16:35:02.000Z</time></trkpt>
        <trkpt lat="29.3701057" lon="103.0302206"><ele>1867.28</ele><time>2025-11-21T16:35:10.000Z</time></trkpt>
        <trkpt lat="29.3701659" lon="103.0301331"><ele>1868.18</ele><time>2025-11-21T16:35:22.000Z</time></trkpt>
        <trkpt lat="29.3701556" lon="103.0300234"><ele>1869.27</ele><time>2025-11-21T16:35:38.000Z</time></trkpt>
        <trkpt lat="29.3701052" lon="103.0299136"><ele>1870.16</ele><time>2025-11-21T16:35:52.000Z</time></trkpt>
        <trkpt lat="29.3700193" lon="103.0298368"><ele>1871.92</ele><time>2025-11-21T16:36:32.000Z</time></trkpt>
        <trkpt lat="29.3699157" lon="103.029813"><ele>1876.1</ele><time>2025-11-21T16:36:44.000Z</time></trkpt>
        <trkpt lat="29.3698298" lon="103.0297539"><ele>1878.41</ele><time>2025-11-21T16:37:04.000Z</time></trkpt>
        <trkpt lat="29.3697427" lon="103.0297026"><ele>1879.34</ele><time>2025-11-21T16:37:18.000Z</time></trkpt>
        <trkpt lat="29.3697218" lon="103.029605"><ele>1881.03</ele><time>2025-11-21T16:37:32.000Z</time></trkpt>
        <trkpt lat="29.3696853" lon="103.0295059"><ele>1881.36</ele><time>2025-11-21T16:37:42.000Z</time></trkpt>
        <trkpt lat="29.3696699" lon="103.029393"><ele>1883.11</ele><time>2025-11-21T16:37:52.000Z</time></trkpt>
        <trkpt lat="29.369667" lon="103.0292786"><ele>1885.45</ele><time>2025-11-21T16:38:06.000Z</time></trkpt>
        <trkpt lat="29.3696465" lon="103.0291713"><ele>1886.35</ele><time>2025-11-21T16:38:24.000Z</time></trkpt>
        <trkpt lat="29.3695746" lon="103.0291264"><ele>1889.1</ele><time>2025-11-21T16:38:36.000Z</time></trkpt>
        <trkpt lat="29.3694681" lon="103.0291198"><ele>1891.63</ele><time>2025-11-21T16:38:46.000Z</time></trkpt>
        <trkpt lat="29.3693572" lon="103.0291251"><ele>1893.54</ele><time>2025-11-21T16:38:56.000Z</time></trkpt>
        <trkpt lat="29.369247" lon="103.0291249"><ele>1895.76</ele><time>2025-11-21T16:39:06.000Z</time></trkpt>
        <trkpt lat="29.369146" lon="103.0291453"><ele>1896.2</ele><time>2025-11-21T16:39:16.000Z</time></trkpt>
        <trkpt lat="29.3690477" lon="103.0291713"><ele>1896.57</ele><time>2025-11-21T16:39:26.000Z</time></trkpt>
        <trkpt lat="29.3689486" lon="103.0291879"><ele>1897.02</ele><time>2025-11-21T16:39:36.000Z</time></trkpt>
        <trkpt lat="29.3688499" lon="103.0291685"><ele>1897.89</ele><time>2025-11-21T16:39:46.000Z</time></trkpt>
        <trkpt lat="29.3687828" lon="103.0290869"><ele>1898.49</ele><time>2025-11-21T16:39:56.000Z</time></trkpt>
        <trkpt lat="29.3687762" lon="103.0289773"><ele>1899.09</ele><time>2025-11-21T16:40:06.000Z</time></trkpt>
        <trkpt lat="29.3688189" lon="103.0288718"><ele>1900.25</ele><time>2025-11-21T16:40:18.000Z</time></trkpt>
        <trkpt lat="29.368827" lon="103.0287584"><ele>1902.04</ele><time>2025-11-21T16:40:30.000Z</time></trkpt>
        <trkpt lat="29.3688032" lon="103.0286539"><ele>1904.34</ele><time>2025-11-21T16:40:42.000Z</time></trkpt>
        <trkpt lat="29.3687682" lon="103.0285482"><ele>1906.81</ele><time>2025-11-21T16:40:54.000Z</time></trkpt>
        <trkpt lat="29.3687221" lon="103.0284466"><ele>1909.31</ele><time>2025-11-21T16:41:06.000Z</time></trkpt>
        <trkpt lat="29.3686671" lon="103.0283515"><ele>1912.13</ele><time>2025-11-21T16:41:16.000Z</time></trkpt>
        <trkpt lat="29.3686234" lon="103.0282443"><ele>1914.49</ele><time>2025-11-21T16:41:26.000Z</time></trkpt>
        <trkpt lat="29.3685995" lon="103.0281336"><ele>1916.54</ele><time>2025-11-21T16:41:44.000Z</time></trkpt>
        <trkpt lat="29.3685479" lon="103.0280381"><ele>1918.7</ele><time>2025-11-21T16:41:56.000Z</time></trkpt>
        <trkpt lat="29.3685025" lon="103.0279379"><ele>1920.91</ele><time>2025-11-21T16:42:06.000Z</time></trkpt>
        <trkpt lat="29.3684765" lon="103.0278273"><ele>1922.86</ele><time>2025-11-21T16:42:16.000Z</time></trkpt>
        <trkpt lat="29.3684682" lon="103.027718"><ele>1925.09</ele><time>2025-11-21T16:42:26.000Z</time></trkpt>
        <trkpt lat="29.3684501" lon="103.0276139"><ele>1927.22</ele><time>2025-11-21T16:42:36.000Z</time></trkpt>
        <trkpt lat="29.36842" lon="103.0275113"><ele>1928.88</ele><time>2025-11-21T16:42:46.000Z</time></trkpt>
        <trkpt lat="29.3683754" lon="103.0274152"><ele>1930.71</ele><time>2025-11-21T16:42:58.000Z</time></trkpt>
        <trkpt lat="29.368324" lon="103.027325"><ele>1933.04</ele><time>2025-11-21T16:43:12.000Z</time></trkpt>
        <trkpt lat="29.3682884" lon="103.0272237"><ele>1935.46</ele><time>2025-11-21T16:43:24.000Z</time></trkpt>
        <trkpt lat="29.3682884" lon="103.0272237"><ele>1935.46</ele><time>2025-11-21T16:43:43.000Z</time></trkpt>
        <trkpt lat="29.3682884" lon="103.0272237"><ele>1935.46</ele><time>2025-11-21T16:45:05.000Z</time></trkpt>
        <trkpt lat="29.3682884" lon="103.0272237"><ele>1935.46</ele><time>2025-11-21T16:45:25.000Z</time></trkpt>
        <trkpt lat="29.3682884" lon="103.0272237"><ele>1935.46</ele><time>2025-11-21T16:45:35.000Z</time></trkpt>
        <trkpt lat="29.3682884" lon="103.0272237"><ele>1935.46</ele><time>2025-11-21T16:46:57.000Z</time></trkpt>
        <trkpt lat="29.3682884" lon="103.0272237"><ele>1935.46</ele><time>2025-11-21T16:47:03.000Z</time></trkpt>
        <trkpt lat="29.3682884" lon="103.0272237"><ele>1935.46</ele><time>2025-11-21T16:47:39.000Z</time></trkpt>
        <trkpt lat="29.3682323" lon="103.0271423"><ele>1937.94</ele><time>2025-11-21T16:48:35.000Z</time></trkpt>
        <trkpt lat="29.3682323" lon="103.0271423"><ele>1937.94</ele><time>2025-11-21T16:48:40.000Z</time></trkpt>
        <trkpt lat="29.3681749" lon="103.0270426"><ele>1942.08</ele><time>2025-11-21T16:48:52.000Z</time></trkpt>
        <trkpt lat="29.368079" lon="103.0270157"><ele>1945.44</ele><time>2025-11-21T16:49:02.000Z</time></trkpt>
        <trkpt lat="29.367983" lon="103.0269768"><ele>1947.91</ele><time>2025-11-21T16:49:12.000Z</time></trkpt>
        <trkpt lat="29.3679021" lon="103.0269141"><ele>1950.21</ele><time>2025-11-21T16:49:22.000Z</time></trkpt>
        <trkpt lat="29.3678592" lon="103.0268191"><ele>1952.14</ele><time>2025-11-21T16:49:32.000Z</time></trkpt>
        <trkpt lat="29.3678338" lon="103.0267145"><ele>1954.09</ele><time>2025-11-21T16:49:42.000Z</time></trkpt>
        <trkpt lat="29.3678015" lon="103.026599"><ele>1955.74</ele><time>2025-11-21T16:49:54.000Z</time></trkpt>
        <trkpt lat="29.3677764" lon="103.0264849"><ele>1957.81</ele><time>2025-11-21T16:50:06.000Z</time></trkpt>
        <trkpt lat="29.3677459" lon="103.0263703"><ele>1960.49</ele><time>2025-11-21T16:50:20.000Z</time></trkpt>
        <trkpt lat="29.367702" lon="103.0262727"><ele>1963.51</ele><time>2025-11-21T16:50:32.000Z</time></trkpt>
        <trkpt lat="29.3676391" lon="103.026196"><ele>1966.54</ele><time>2025-11-21T16:50:44.000Z</time></trkpt>
        <trkpt lat="29.3675851" lon="103.0261102"><ele>1970.21</ele><time>2025-11-21T16:50:56.000Z</time></trkpt>
        <trkpt lat="29.3675333" lon="103.0260167"><ele>1973.57</ele><time>2025-11-21T16:51:10.000Z</time></trkpt>
        <trkpt lat="29.3674758" lon="103.025932"><ele>1976.85</ele><time>2025-11-21T16:51:24.000Z</time></trkpt>
        <trkpt lat="29.3674315" lon="103.0258412"><ele>1979.83</ele><time>2025-11-21T16:51:40.000Z</time></trkpt>
        <trkpt lat="29.3674315" lon="103.0258412"><ele>1979.83</ele><time>2025-11-21T16:51:55.000Z</time></trkpt>
        <trkpt lat="29.36737" lon="103.0257523"><ele>1982.35</ele><time>2025-11-21T16:55:03.000Z</time></trkpt>
        <trkpt lat="29.36737" lon="103.0257523"><ele>1982.35</ele><time>2025-11-21T16:55:12.000Z</time></trkpt>
        <trkpt lat="29.3673107" lon="103.0256748"><ele>1984.33</ele><time>2025-11-21T16:55:24.000Z</time></trkpt>
        <trkpt lat="29.3672518" lon="103.0255891"><ele>1986.24</ele><time>2025-11-21T16:55:40.000Z</time></trkpt>
        <trkpt lat="29.3672892" lon="103.025512"><ele>1988.68</ele><time>2025-11-21T16:55:54.000Z</time></trkpt>
        <trkpt lat="29.3672892" lon="103.025512"><ele>1988.68</ele><time>2025-11-21T16:56:17.000Z</time></trkpt>
        <trkpt lat="29.3672892" lon="103.025512"><ele>1988.68</ele><time>2025-11-21T16:56:27.000Z</time></trkpt>
        <trkpt lat="29.3672892" lon="103.025512"><ele>1988.68</ele><time>2025-11-21T16:56:43.000Z</time></trkpt>
        <trkpt lat="29.3672892" lon="103.025512"><ele>1988.68</ele><time>2025-11-21T16:56:55.000Z</time></trkpt>
        <trkpt lat="29.3672892" lon="103.025512"><ele>1988.68</ele><time>2025-11-21T16:57:35.000Z</time></trkpt>
        <trkpt lat="29.3672892" lon="103.025512"><ele>1988.68</ele><time>2025-11-21T16:57:55.000Z</time></trkpt>
        <trkpt lat="29.3672892" lon="103.025512"><ele>1988.68</ele><time>2025-11-21T16:58:13.000Z</time></trkpt>
        <trkpt lat="29.3674186" lon="103.0254936"><ele>1990.3</ele><time>2025-11-21T16:58:43.000Z</time></trkpt>
        <trkpt lat="29.3674186" lon="103.0254936"><ele>1990.3</ele><time>2025-11-21T16:58:48.000Z</time></trkpt>
        <trkpt lat="29.367523" lon="103.0254508"><ele>1991.48</ele><time>2025-11-21T16:58:58.000Z</time></trkpt>
        <trkpt lat="29.3676023" lon="103.0253875"><ele>1991.82</ele><time>2025-11-21T16:59:06.000Z</time></trkpt>
        <trkpt lat="29.3676631" lon="103.0253091"><ele>1992.55</ele><time>2025-11-21T16:59:14.000Z</time></trkpt>
        <trkpt lat="29.3677117" lon="103.02522"><ele>1992.94</ele><time>2025-11-21T16:59:24.000Z</time></trkpt>
        <trkpt lat="29.3677618" lon="103.0251299"><ele>1993.18</ele><time>2025-11-21T16:59:32.000Z</time></trkpt>
        <trkpt lat="29.3678154" lon="103.0250391"><ele>1993.63</ele><time>2025-11-21T16:59:40.000Z</time></trkpt>
        <trkpt lat="29.3678635" lon="103.0249274"><ele>1994.71</ele><time>2025-11-21T16:59:50.000Z</time></trkpt>
        <trkpt lat="29.3679027" lon="103.0248245"><ele>1995.45</ele><time>2025-11-21T16:59:58.000Z</time></trkpt>
        <trkpt lat="29.3679223" lon="103.0247135"><ele>1995.98</ele><time>2025-11-21T17:00:06.000Z</time></trkpt>
        <trkpt lat="29.3679135" lon="103.0246054"><ele>1996.31</ele><time>2025-11-21T17:00:14.000Z</time></trkpt>
        <trkpt lat="29.3679086" lon="103.0244912"><ele>1996.82</ele><time>2025-11-21T17:00:24.000Z</time></trkpt>
        <trkpt lat="29.3679523" lon="103.024386"><ele>1997.37</ele><time>2025-11-21T17:00:34.000Z</time></trkpt>
        <trkpt lat="29.3679976" lon="103.0242905"><ele>1997.91</ele><time>2025-11-21T17:00:42.000Z</time></trkpt>
        <trkpt lat="29.3680225" lon="103.0241915"><ele>1998.62</ele><time>2025-11-21T17:00:50.000Z</time></trkpt>
        <trkpt lat="29.36801" lon="103.0240811"><ele>1999.32</ele><time>2025-11-21T17:01:00.000Z</time></trkpt>
        <trkpt lat="29.3680002" lon="103.0239572"><ele>2000.55</ele><time>2025-11-21T17:01:10.000Z</time></trkpt>
        <trkpt lat="29.368006" lon="103.0238382"><ele>2001.57</ele><time>2025-11-21T17:01:18.000Z</time></trkpt>
        <trkpt lat="29.3680319" lon="103.0237316"><ele>2002.04</ele><time>2025-11-21T17:01:26.000Z</time></trkpt>
        <trkpt lat="29.3681097" lon="103.0236651"><ele>2002.71</ele><time>2025-11-21T17:01:34.000Z</time></trkpt>
        <trkpt lat="29.3682099" lon="103.0236337"><ele>2003.98</ele><time>2025-11-21T17:01:42.000Z</time></trkpt>
        <trkpt lat="29.3682939" lon="103.0235794"><ele>2005.27</ele><time>2025-11-21T17:01:50.000Z</time></trkpt>
        <trkpt lat="29.3683813" lon="103.0235199"><ele>2006.4</ele><time>2025-11-21T17:02:00.000Z</time></trkpt>
        <trkpt lat="29.3684659" lon="103.0234669"><ele>2006.89</ele><time>2025-11-21T17:02:08.000Z</time></trkpt>
        <trkpt lat="29.3685583" lon="103.0234154"><ele>2007.53</ele><time>2025-11-21T17:02:18.000Z</time></trkpt>
        <trkpt lat="29.3686451" lon="103.0233461"><ele>2008.74</ele><time>2025-11-21T17:02:28.000Z</time></trkpt>
        <trkpt lat="29.3686648" lon="103.0232942"><ele>2009.31</ele><time>2025-11-21T17:02:32.000Z</time></trkpt>
        <trkpt lat="29.3685938" lon="103.023244"><ele>2009.47</ele><time>2025-11-21T17:02:54.000Z</time></trkpt>
        <trkpt lat="29.3685037" lon="103.0231756"><ele>2011.19</ele><time>2025-11-21T17:03:08.000Z</time></trkpt>
        <trkpt lat="29.3684306" lon="103.0230847"><ele>2012.85</ele><time>2025-11-21T17:03:22.000Z</time></trkpt>
        <trkpt lat="29.3683878" lon="103.0229817"><ele>2015.22</ele><time>2025-11-21T17:03:36.000Z</time></trkpt>
        <trkpt lat="29.3683701" lon="103.0228741"><ele>2018.28</ele><time>2025-11-21T17:03:50.000Z</time></trkpt>
        <trkpt lat="29.3683626" lon="103.0227595"><ele>2020.73</ele><time>2025-11-21T17:04:08.000Z</time></trkpt>
        <trkpt lat="29.3683316" lon="103.0226606"><ele>2023.52</ele><time>2025-11-21T17:04:26.000Z</time></trkpt>
        <trkpt lat="29.3682751" lon="103.022573"><ele>2026.89</ele><time>2025-11-21T17:04:46.000Z</time></trkpt>
        <trkpt lat="29.3682287" lon="103.0224792"><ele>2031.17</ele><time>2025-11-21T17:05:04.000Z</time></trkpt>
        <trkpt lat="29.3681935" lon="103.0223791"><ele>2035.46</ele><time>2025-11-21T17:05:22.000Z</time></trkpt>
        <trkpt lat="29.3681674" lon="103.0222722"><ele>2039.79</ele><time>2025-11-21T17:05:36.000Z</time></trkpt>
        <trkpt lat="29.3681849" lon="103.0221647"><ele>2042.47</ele><time>2025-11-21T17:05:52.000Z</time></trkpt>
        <trkpt lat="29.3682034" lon="103.0220569"><ele>2045.86</ele><time>2025-11-21T17:06:10.000Z</time></trkpt>
        <trkpt lat="29.3682294" lon="103.0219486"><ele>2049.71</ele><time>2025-11-21T17:06:34.000Z</time></trkpt>
        <trkpt lat="29.3682644" lon="103.0218478"><ele>2054.38</ele><time>2025-11-21T17:06:58.000Z</time></trkpt>
        <trkpt lat="29.3682584" lon="103.0217454"><ele>2058.68</ele><time>2025-11-21T17:07:22.000Z</time></trkpt>
        <trkpt lat="29.3682886" lon="103.02165"><ele>2063.93</ele><time>2025-11-21T17:07:38.000Z</time></trkpt>
        <trkpt lat="29.3682826" lon="103.0215508"><ele>2067.83</ele><time>2025-11-21T17:07:58.000Z</time></trkpt>
        <trkpt lat="29.3682831" lon="103.0214444"><ele>2071.54</ele><time>2025-11-21T17:08:22.000Z</time></trkpt>
        <trkpt lat="29.3682847" lon="103.0213345"><ele>2076.08</ele><time>2025-11-21T17:08:38.000Z</time></trkpt>
        <trkpt lat="29.3682659" lon="103.0212282"><ele>2079.7</ele><time>2025-11-21T17:09:02.000Z</time></trkpt>
        <trkpt lat="29.368194" lon="103.0211663"><ele>2084.86</ele><time>2025-11-21T17:09:18.000Z</time></trkpt>
        <trkpt lat="29.3681221" lon="103.0210983"><ele>2088.74</ele><time>2025-11-21T17:09:46.000Z</time></trkpt>
        <trkpt lat="29.3680541" lon="103.021019"><ele>2094.09</ele><time>2025-11-21T17:10:08.000Z</time></trkpt>
        <trkpt lat="29.367998" lon="103.0209267"><ele>2099.05</ele><time>2025-11-21T17:10:32.000Z</time></trkpt>
        <trkpt lat="29.3679915" lon="103.0208156"><ele>2103.29</ele><time>2025-11-21T17:10:54.000Z</time></trkpt>
        <trkpt lat="29.3679677" lon="103.020712"><ele>2107.01</ele><time>2025-11-21T17:11:16.000Z</time></trkpt>
        <trkpt lat="29.3679175" lon="103.0206177"><ele>2112.17</ele><time>2025-11-21T17:11:40.000Z</time></trkpt>
        <trkpt lat="29.3678426" lon="103.020545"><ele>2117.47</ele><time>2025-11-21T17:12:02.000Z</time></trkpt>
        <trkpt lat="29.3677583" lon="103.0204815"><ele>2122.96</ele><time>2025-11-21T17:12:20.000Z</time></trkpt>
        <trkpt lat="29.3676802" lon="103.0204186"><ele>2127.32</ele><time>2025-11-21T17:12:42.000Z</time></trkpt>
        <trkpt lat="29.3676007" lon="103.0203598"><ele>2131.7</ele><time>2025-11-21T17:13:08.000Z</time></trkpt>
        <trkpt lat="29.3675192" lon="103.0203024"><ele>2136.64</ele><time>2025-11-21T17:13:28.000Z</time></trkpt>
        <trkpt lat="29.3674953" lon="103.0202063"><ele>2141.65</ele><time>2025-11-21T17:13:48.000Z</time></trkpt>
        <trkpt lat="29.3674505" lon="103.0201199"><ele>2146.19</ele><time>2025-11-21T17:14:06.000Z</time></trkpt>
        <trkpt lat="29.3673884" lon="103.0200438"><ele>2150.29</ele><time>2025-11-21T17:14:24.000Z</time></trkpt>
        <trkpt lat="29.36732" lon="103.0199683"><ele>2152.99</ele><time>2025-11-21T17:14:56.000Z</time></trkpt>
        <trkpt lat="29.36732" lon="103.0199683"><ele>2152.99</ele><time>2025-11-21T17:15:17.000Z</time></trkpt>
        <trkpt lat="29.36732" lon="103.0199683"><ele>2152.99</ele><time>2025-11-21T17:15:41.000Z</time></trkpt>
        <trkpt lat="29.36732" lon="103.0199683"><ele>2152.99</ele><time>2025-11-21T17:16:25.000Z</time></trkpt>
        <trkpt lat="29.36732" lon="103.0199683"><ele>2152.99</ele><time>2025-11-21T17:17:15.000Z</time></trkpt>
        <trkpt lat="29.36732" lon="103.0199683"><ele>2152.99</ele><time>2025-11-21T17:17:29.000Z</time></trkpt>
        <trkpt lat="29.36732" lon="103.0199683"><ele>2152.99</ele><time>2025-11-21T17:18:27.000Z</time></trkpt>
        <trkpt lat="29.36732" lon="103.0199683"><ele>2152.99</ele><time>2025-11-21T17:18:43.000Z</time></trkpt>
        <trkpt lat="29.36732" lon="103.0199683"><ele>2152.99</ele><time>2025-11-21T17:18:45.000Z</time></trkpt>
        <trkpt lat="29.36732" lon="103.0199683"><ele>2152.99</ele><time>2025-11-21T17:19:19.000Z</time></trkpt>
        <trkpt lat="29.36732" lon="103.0199683"><ele>2152.99</ele><time>2025-11-21T17:19:33.000Z</time></trkpt>
        <trkpt lat="29.36732" lon="103.0199683"><ele>2152.99</ele><time>2025-11-21T17:19:51.000Z</time></trkpt>
        <trkpt lat="29.36732" lon="103.0199683"><ele>2152.99</ele><time>2025-11-21T17:19:57.000Z</time></trkpt>
        <trkpt lat="29.36732" lon="103.0199683"><ele>2152.99</ele><time>2025-11-21T17:20:19.000Z</time></trkpt>
        <trkpt lat="29.36732" lon="103.0199683"><ele>2152.99</ele><time>2025-11-21T17:21:39.000Z</time></trkpt>
        <trkpt lat="29.36732" lon="103.0199683"><ele>2152.99</ele><time>2025-11-21T17:21:53.000Z</time></trkpt>
        <trkpt lat="29.36732" lon="103.0199683"><ele>2152.99</ele><time>2025-11-21T17:23:15.000Z</time></trkpt>
        <trkpt lat="29.36732" lon="103.0199683"><ele>2152.99</ele><time>2025-11-21T17:23:33.000Z</time></trkpt>
        <trkpt lat="29.3672544" lon="103.0198891"><ele>2157.93</ele><time>2025-11-21T17:27:07.000Z</time></trkpt>
        <trkpt lat="29.3672544" lon="103.0198891"><ele>2157.93</ele><time>2025-11-21T17:27:22.000Z</time></trkpt>
        <trkpt lat="29.3671901" lon="103.0198169"><ele>2162.81</ele><time>2025-11-21T17:27:52.000Z</time></trkpt>
        <trkpt lat="29.3671427" lon="103.0197162"><ele>2167.46</ele><time>2025-11-21T17:28:12.000Z</time></trkpt>
        <trkpt lat="29.3671211" lon="103.019612"><ele>2171.81</ele><time>2025-11-21T17:28:30.000Z</time></trkpt>
        <trkpt lat="29.3670524" lon="103.0195615"><ele>2175.26</ele><time>2025-11-21T17:28:58.000Z</time></trkpt>
        <trkpt lat="29.366981" lon="103.019496"><ele>2180.66</ele><time>2025-11-21T17:29:26.000Z</time></trkpt>
        <trkpt lat="29.3669714" lon="103.0194008"><ele>2186.69</ele><time>2025-11-21T17:29:48.000Z</time></trkpt>
        <trkpt lat="29.366966" lon="103.0192971"><ele>2190.88</ele><time>2025-11-21T17:30:02.000Z</time></trkpt>
        <trkpt lat="29.3669365" lon="103.0191898"><ele>2194.11</ele><time>2025-11-21T17:30:22.000Z</time></trkpt>
        <trkpt lat="29.3668888" lon="103.0190941"><ele>2196.87</ele><time>2025-11-21T17:31:02.000Z</time></trkpt>
        <trkpt lat="29.3668543" lon="103.0189932"><ele>2202.56</ele><time>2025-11-21T17:31:34.000Z</time></trkpt>
        <trkpt lat="29.3668367" lon="103.0188907"><ele>2209.3</ele><time>2025-11-21T17:32:02.000Z</time></trkpt>
        <trkpt lat="29.3668466" lon="103.0187793"><ele>2215.75</ele><time>2025-11-21T17:32:18.000Z</time></trkpt>
        <trkpt lat="29.3668094" lon="103.0186912"><ele>2219.52</ele><time>2025-11-21T17:32:50.000Z</time></trkpt>
        <trkpt lat="29.3667628" lon="103.0185961"><ele>2224.71</ele><time>2025-11-21T17:33:16.000Z</time></trkpt>
        <trkpt lat="29.3667377" lon="103.0184881"><ele>2230.35</ele><time>2025-11-21T17:33:38.000Z</time></trkpt>
        <trkpt lat="29.3667113" lon="103.0183836"><ele>2235.32</ele><time>2025-11-21T17:34:08.000Z</time></trkpt>
        <trkpt lat="29.3666866" lon="103.0182812"><ele>2240.71</ele><time>2025-11-21T17:34:28.000Z</time></trkpt>
        <trkpt lat="29.3666449" lon="103.0181867"><ele>2245.97</ele><time>2025-11-21T17:34:54.000Z</time></trkpt>
        <trkpt lat="29.3666486" lon="103.0181142"><ele>2251.21</ele><time>2025-11-21T17:35:12.000Z</time></trkpt>
        <trkpt lat="29.3666512" lon="103.0180183"><ele>2255.64</ele><time>2025-11-21T17:35:44.000Z</time></trkpt>
        <trkpt lat="29.3666278" lon="103.0179093"><ele>2260.33</ele><time>2025-11-21T17:36:16.000Z</time></trkpt>
        <trkpt lat="29.3665878" lon="103.0178047"><ele>2265.28</ele><time>2025-11-21T17:36:59.000Z</time></trkpt>
        <trkpt lat="29.3665194" lon="103.0177223"><ele>2271.39</ele><time>2025-11-21T17:37:33.000Z</time></trkpt>
        <trkpt lat="29.3664748" lon="103.0176291"><ele>2278.29</ele><time>2025-11-21T17:38:01.000Z</time></trkpt>
        <trkpt lat="29.3664748" lon="103.0176291"><ele>2278.29</ele><time>2025-11-21T17:38:15.000Z</time></trkpt>
        <trkpt lat="29.3665051" lon="103.017542"><ele>2284.74</ele><time>2025-11-21T17:38:29.000Z</time></trkpt>
        <trkpt lat="29.3665051" lon="103.017542"><ele>2284.74</ele><time>2025-11-21T17:38:43.000Z</time></trkpt>
        <trkpt lat="29.3665215" lon="103.017436"><ele>2288.58</ele><time>2025-11-21T17:39:19.000Z</time></trkpt>
        <trkpt lat="29.3665734" lon="103.017346"><ele>2293.57</ele><time>2025-11-21T17:39:50.000Z</time></trkpt>
        <trkpt lat="29.36658" lon="103.0172458"><ele>2298.6</ele><time>2025-11-21T17:40:31.000Z</time></trkpt>
        <trkpt lat="29.3666013" lon="103.0171433"><ele>2305</ele><time>2025-11-21T17:41:12.000Z</time></trkpt>
        <trkpt lat="29.366623" lon="103.0170398"><ele>2310.38</ele><time>2025-11-21T17:41:47.000Z</time></trkpt>
        <trkpt lat="29.3666445" lon="103.0169328"><ele>2315.94</ele><time>2025-11-21T17:42:27.000Z</time></trkpt>
        <trkpt lat="29.3666445" lon="103.0169328"><ele>2315.94</ele><time>2025-11-21T17:42:37.000Z</time></trkpt>
        <trkpt lat="29.3666445" lon="103.0169328"><ele>2315.94</ele><time>2025-11-21T17:42:39.000Z</time></trkpt>
        <trkpt lat="29.3666445" lon="103.0169328"><ele>2315.94</ele><time>2025-11-21T17:42:59.000Z</time></trkpt>
        <trkpt lat="29.3666741" lon="103.0168249"><ele>2321.93</ele><time>2025-11-21T17:43:23.000Z</time></trkpt>
        <trkpt lat="29.3666741" lon="103.0168249"><ele>2321.93</ele><time>2025-11-21T17:44:07.000Z</time></trkpt>
        <trkpt lat="29.3667294" lon="103.0167432"><ele>2327.93</ele><time>2025-11-21T17:44:29.000Z</time></trkpt>
        <trkpt lat="29.3668012" lon="103.0166794"><ele>2334.41</ele><time>2025-11-21T17:45:03.000Z</time></trkpt>
        <trkpt lat="29.3668802" lon="103.016619"><ele>2339.83</ele><time>2025-11-21T17:45:35.000Z</time></trkpt>
        <trkpt lat="29.366959" lon="103.0165614"><ele>2345.58</ele><time>2025-11-21T17:46:05.000Z</time></trkpt>
        <trkpt lat="29.3670117" lon="103.0164798"><ele>2350.79</ele><time>2025-11-21T17:46:39.000Z</time></trkpt>
        <trkpt lat="29.3670292" lon="103.0163748"><ele>2355.94</ele><time>2025-11-21T17:47:21.000Z</time></trkpt>
        <trkpt lat="29.3670779" lon="103.01629"><ele>2361.82</ele><time>2025-11-21T17:47:57.000Z</time></trkpt>
        <trkpt lat="29.3670818" lon="103.0161922"><ele>2368.87</ele><time>2025-11-21T17:48:47.000Z</time></trkpt>
        <trkpt lat="29.3670907" lon="103.016082"><ele>2374.96</ele><time>2025-11-21T17:49:37.000Z</time></trkpt>
        <trkpt lat="29.3671379" lon="103.015996"><ele>2381.29</ele><time>2025-11-21T17:50:23.000Z</time></trkpt>
        <trkpt lat="29.3671379" lon="103.015996"><ele>2381.29</ele><time>2025-11-21T17:51:15.000Z</time></trkpt>
        <trkpt lat="29.3671379" lon="103.015996"><ele>2381.29</ele><time>2025-11-21T17:51:37.000Z</time></trkpt>
        <trkpt lat="29.3671379" lon="103.015996"><ele>2381.29</ele><time>2025-11-21T17:52:03.000Z</time></trkpt>
        <trkpt lat="29.367073" lon="103.0159349"><ele>2388.3</ele><time>2025-11-21T17:52:49.000Z</time></trkpt>
        <trkpt lat="29.367073" lon="103.0159349"><ele>2388.3</ele><time>2025-11-21T17:53:01.000Z</time></trkpt>
        <trkpt lat="29.3669709" lon="103.0159306"><ele>2396.4</ele><time>2025-11-21T17:53:15.000Z</time></trkpt>
        <trkpt lat="29.3668786" lon="103.0159255"><ele>2401.5</ele><time>2025-11-21T17:53:25.000Z</time></trkpt>
        <trkpt lat="29.36678" lon="103.0159213"><ele>2403.9</ele><time>2025-11-21T17:53:37.000Z</time></trkpt>
        <trkpt lat="29.3666852" lon="103.015924"><ele>2404.86</ele><time>2025-11-21T17:53:49.000Z</time></trkpt>
        <trkpt lat="29.3666043" lon="103.0159935"><ele>2405.89</ele><time>2025-11-21T17:54:09.000Z</time></trkpt>
        <trkpt lat="29.3665406" lon="103.0160932"><ele>2410.92</ele><time>2025-11-21T17:54:19.000Z</time></trkpt>
        <trkpt lat="29.3664737" lon="103.0161763"><ele>2416</ele><time>2025-11-21T17:54:27.000Z</time></trkpt>
        <trkpt lat="29.3663824" lon="103.0161875"><ele>2420.04</ele><time>2025-11-21T17:54:33.000Z</time></trkpt>
        <trkpt lat="29.3662717" lon="103.0161692"><ele>2421.31</ele><time>2025-11-21T17:54:41.000Z</time></trkpt>
        <trkpt lat="29.3661669" lon="103.016139"><ele>2420.9</ele><time>2025-11-21T17:54:51.000Z</time></trkpt>
        <trkpt lat="29.3661669" lon="103.016139"><ele>2420.9</ele><time>2025-11-21T17:55:11.000Z</time></trkpt>
        <trkpt lat="29.3660729" lon="103.0161457"><ele>2419.36</ele><time>2025-11-21T17:55:13.000Z</time></trkpt>
        <trkpt lat="29.3660729" lon="103.0161457"><ele>2419.36</ele><time>2025-11-21T17:55:19.000Z</time></trkpt>
        <trkpt lat="29.3660729" lon="103.0161457"><ele>2419.36</ele><time>2025-11-21T17:55:37.000Z</time></trkpt>
        <trkpt lat="29.3659859" lon="103.0161732"><ele>2417.17</ele><time>2025-11-21T17:55:47.000Z</time></trkpt>
        <trkpt lat="29.3659859" lon="103.0161732"><ele>2417.17</ele><time>2025-11-21T17:55:55.000Z</time></trkpt>
        <trkpt lat="29.3658882" lon="103.0162103"><ele>2415.36</ele><time>2025-11-21T17:56:07.000Z</time></trkpt>
        <trkpt lat="29.3658007" lon="103.0162756"><ele>2413.81</ele><time>2025-11-21T17:56:19.000Z</time></trkpt>
        <trkpt lat="29.3657328" lon="103.0163522"><ele>2413.18</ele><time>2025-11-21T17:56:29.000Z</time></trkpt>
        <trkpt lat="29.3656475" lon="103.0164065"><ele>2413.14</ele><time>2025-11-21T17:56:41.000Z</time></trkpt>
        <trkpt lat="29.3655565" lon="103.0164531"><ele>2413.36</ele><time>2025-11-21T17:56:51.000Z</time></trkpt>
        <trkpt lat="29.3654678" lon="103.0165043"><ele>2413.34</ele><time>2025-11-21T17:57:01.000Z</time></trkpt>
        <trkpt lat="29.3653851" lon="103.0165669"><ele>2413.53</ele><time>2025-11-21T17:57:11.000Z</time></trkpt>
        <trkpt lat="29.3653155" lon="103.0166364"><ele>2414.51</ele><time>2025-11-21T17:57:19.000Z</time></trkpt>
        <trkpt lat="29.3652536" lon="103.0167209"><ele>2415.73</ele><time>2025-11-21T17:57:27.000Z</time></trkpt>
        <trkpt lat="29.3652024" lon="103.0168246"><ele>2416.63</ele><time>2025-11-21T17:57:37.000Z</time></trkpt>
        <trkpt lat="29.3651518" lon="103.0169348"><ele>2417.4</ele><time>2025-11-21T17:57:47.000Z</time></trkpt>
        <trkpt lat="29.3650981" lon="103.0170283"><ele>2418.21</ele><time>2025-11-21T17:57:55.000Z</time></trkpt>
        <trkpt lat="29.3650361" lon="103.0171241"><ele>2419.14</ele><time>2025-11-21T17:58:05.000Z</time></trkpt>
        <trkpt lat="29.3649882" lon="103.0172256"><ele>2419.57</ele><time>2025-11-21T17:58:13.000Z</time></trkpt>
        <trkpt lat="29.3649329" lon="103.0173115"><ele>2420.47</ele><time>2025-11-21T17:58:23.000Z</time></trkpt>
        <trkpt lat="29.364871" lon="103.0174"><ele>2421.13</ele><time>2025-11-21T17:58:33.000Z</time></trkpt>
        <trkpt lat="29.3648094" lon="103.0174822"><ele>2422.88</ele><time>2025-11-21T17:58:43.000Z</time></trkpt>
        <trkpt lat="29.3647288" lon="103.0175546"><ele>2425.02</ele><time>2025-11-21T17:58:57.000Z</time></trkpt>
        <trkpt lat="29.3646392" lon="103.0176032"><ele>2426.37</ele><time>2025-11-21T17:59:11.000Z</time></trkpt>
        <trkpt lat="29.3645541" lon="103.0176574"><ele>2427.99</ele><time>2025-11-21T17:59:23.000Z</time></trkpt>
        <trkpt lat="29.3644697" lon="103.0177257"><ele>2429.62</ele><time>2025-11-21T17:59:35.000Z</time></trkpt>
        <trkpt lat="29.3644" lon="103.0178112"><ele>2430.64</ele><time>2025-11-21T17:59:45.000Z</time></trkpt>
        <trkpt lat="29.3643307" lon="103.017897"><ele>2430.52</ele><time>2025-11-21T17:59:55.000Z</time></trkpt>
        <trkpt lat="29.364259" lon="103.0179857"><ele>2430.51</ele><time>2025-11-21T18:00:05.000Z</time></trkpt>
        <trkpt lat="29.3641834" lon="103.0180665"><ele>2431.83</ele><time>2025-11-21T18:00:15.000Z</time></trkpt>
        <trkpt lat="29.3641147" lon="103.0181629"><ele>2433.13</ele><time>2025-11-21T18:00:25.000Z</time></trkpt>
        <trkpt lat="29.36404" lon="103.0182566"><ele>2434.25</ele><time>2025-11-21T18:00:35.000Z</time></trkpt>
        <trkpt lat="29.3639946" lon="103.0183531"><ele>2434.95</ele><time>2025-11-21T18:00:43.000Z</time></trkpt>
        <trkpt lat="29.363987" lon="103.0184688"><ele>2435.46</ele><time>2025-11-21T18:00:53.000Z</time></trkpt>
        <trkpt lat="29.3639812" lon="103.018585"><ele>2436.82</ele><time>2025-11-21T18:01:03.000Z</time></trkpt>
        <trkpt lat="29.3639622" lon="103.0186982"><ele>2437.89</ele><time>2025-11-21T18:01:13.000Z</time></trkpt>
        <trkpt lat="29.3639314" lon="103.0188068"><ele>2439.55</ele><time>2025-11-21T18:01:25.000Z</time></trkpt>
        <trkpt lat="29.3638968" lon="103.018918"><ele>2440.6</ele><time>2025-11-21T18:01:39.000Z</time></trkpt>
        <trkpt lat="29.3638793" lon="103.0190302"><ele>2440.93</ele><time>2025-11-21T18:01:49.000Z</time></trkpt>
        <trkpt lat="29.3638419" lon="103.0191322"><ele>2440.24</ele><time>2025-11-21T18:02:01.000Z</time></trkpt>
        <trkpt lat="29.3638074" lon="103.019232"><ele>2439.63</ele><time>2025-11-21T18:02:11.000Z</time></trkpt>
        <trkpt lat="29.3637863" lon="103.0193434"><ele>2439.5</ele><time>2025-11-21T18:02:19.000Z</time></trkpt>
        <trkpt lat="29.3637743" lon="103.0194011"><ele>2439.79</ele><time>2025-11-21T18:02:25.000Z</time></trkpt>
        <trkpt lat="29.3637444" lon="103.019482"><ele>2439.84</ele><time>2025-11-21T18:02:37.000Z</time></trkpt>
        <trkpt lat="29.3636847" lon="103.019554"><ele>2439.75</ele><time>2025-11-21T18:02:47.000Z</time></trkpt>
        <trkpt lat="29.3636129" lon="103.019643"><ele>2440</ele><time>2025-11-21T18:02:57.000Z</time></trkpt>
        <trkpt lat="29.3635399" lon="103.0197254"><ele>2439.94</ele><time>2025-11-21T18:03:05.000Z</time></trkpt>
        <trkpt lat="29.3634515" lon="103.0197747"><ele>2440.05</ele><time>2025-11-21T18:03:13.000Z</time></trkpt>
        <trkpt lat="29.3633454" lon="103.0197727"><ele>2440.17</ele><time>2025-11-21T18:03:23.000Z</time></trkpt>
        <trkpt lat="29.3633034" lon="103.019764"><ele>2440.3</ele><time>2025-11-21T18:03:27.000Z</time></trkpt>
        <trkpt lat="29.3632307" lon="103.0197391"><ele>2440.26</ele><time>2025-11-21T18:03:37.000Z</time></trkpt>
        <trkpt lat="29.3631796" lon="103.0196552"><ele>2439.76</ele><time>2025-11-21T18:03:47.000Z</time></trkpt>
        <trkpt lat="29.3631558" lon="103.0195364"><ele>2439.32</ele><time>2025-11-21T18:04:01.000Z</time></trkpt>
        <trkpt lat="29.363162" lon="103.019415"><ele>2439.28</ele><time>2025-11-21T18:04:11.000Z</time></trkpt>
        <trkpt lat="29.3631785" lon="103.0192968"><ele>2439.51</ele><time>2025-11-21T18:04:21.000Z</time></trkpt>
        <trkpt lat="29.3631883" lon="103.0191775"><ele>2439.96</ele><time>2025-11-21T18:04:31.000Z</time></trkpt>
        <trkpt lat="29.3631966" lon="103.0190619"><ele>2440.75</ele><time>2025-11-21T18:04:45.000Z</time></trkpt>
        <trkpt lat="29.3631629" lon="103.0189477"><ele>2441.16</ele><time>2025-11-21T18:04:57.000Z</time></trkpt>
        <trkpt lat="29.3631025" lon="103.0188806"><ele>2442.29</ele><time>2025-11-21T18:05:13.000Z</time></trkpt>
        <trkpt lat="29.3631025" lon="103.0188806"><ele>2442.29</ele><time>2025-11-21T18:05:25.000Z</time></trkpt>
        <trkpt lat="29.3629957" lon="103.0189074"><ele>2442.8</ele><time>2025-11-21T18:06:07.000Z</time></trkpt>
        <trkpt lat="29.3629957" lon="103.0189074"><ele>2442.8</ele><time>2025-11-21T18:06:23.000Z</time></trkpt>
        <trkpt lat="29.3629013" lon="103.0189321"><ele>2443.36</ele><time>2025-11-21T18:06:45.000Z</time></trkpt>
        <trkpt lat="29.3628137" lon="103.0189595"><ele>2445.09</ele><time>2025-11-21T18:07:53.000Z</time></trkpt>
        <trkpt lat="29.3627193" lon="103.0189638"><ele>2445.06</ele><time>2025-11-21T18:08:13.000Z</time></trkpt>
        <trkpt lat="29.3626918" lon="103.0189572"><ele>2445.95</ele><time>2025-11-21T18:08:19.000Z</time></trkpt>
        <trkpt lat="29.3626918" lon="103.0189572"><ele>2445.95</ele><time>2025-11-21T18:08:33.000Z</time></trkpt>
        <trkpt lat="29.3626372" lon="103.0190137"><ele>2446.51</ele><time>2025-11-21T18:09:03.000Z</time></trkpt>
        <trkpt lat="29.3626372" lon="103.0190137"><ele>2446.51</ele><time>2025-11-21T18:09:15.000Z</time></trkpt>
        <trkpt lat="29.3626372" lon="103.0190137"><ele>2446.51</ele><time>2025-11-21T18:09:37.000Z</time></trkpt>
        <trkpt lat="29.3626372" lon="103.0190137"><ele>2446.51</ele><time>2025-11-21T18:09:39.000Z</time></trkpt>
        <trkpt lat="29.3626372" lon="103.0190137"><ele>2446.51</ele><time>2025-11-21T18:10:17.000Z</time></trkpt>
        <trkpt lat="29.3626372" lon="103.0190137"><ele>2446.51</ele><time>2025-11-21T18:12:17.000Z</time></trkpt>
        <trkpt lat="29.3626372" lon="103.0190137"><ele>2446.51</ele><time>2025-11-21T18:12:33.000Z</time></trkpt>
        <trkpt lat="29.3626372" lon="103.0190137"><ele>2446.51</ele><time>2025-11-21T18:14:05.000Z</time></trkpt>
        <trkpt lat="29.3626372" lon="103.0190137"><ele>2446.51</ele><time>2025-11-21T18:14:25.000Z</time></trkpt>
        <trkpt lat="29.362572" lon="103.0191026"><ele>2446.73</ele><time>2025-11-21T18:14:35.000Z</time></trkpt>
        <trkpt lat="29.362572" lon="103.0191026"><ele>2446.73</ele><time>2025-11-21T18:14:43.000Z</time></trkpt>
        <trkpt lat="29.3625252" lon="103.0191065"><ele>2446.86</ele><time>2025-11-21T18:14:49.000Z</time></trkpt>
        <trkpt lat="29.3624403" lon="103.0191227"><ele>2446.89</ele><time>2025-11-21T18:15:07.000Z</time></trkpt>
        <trkpt lat="29.3623405" lon="103.0191199"><ele>2447.29</ele><time>2025-11-21T18:15:37.000Z</time></trkpt>
        <trkpt lat="29.3622593" lon="103.0191692"><ele>2445.36</ele><time>2025-11-21T18:15:59.000Z</time></trkpt>
        <trkpt lat="29.3621905" lon="103.0192446"><ele>2444.44</ele><time>2025-11-21T18:16:19.000Z</time></trkpt>
        <trkpt lat="29.3621034" lon="103.0192752"><ele>2443.92</ele><time>2025-11-21T18:16:51.000Z</time></trkpt>
        <trkpt lat="29.3620208" lon="103.0193328"><ele>2444.81</ele><time>2025-11-21T18:17:11.000Z</time></trkpt>
        <trkpt lat="29.3619333" lon="103.0193821"><ele>2445.8</ele><time>2025-11-21T18:17:31.000Z</time></trkpt>
        <trkpt lat="29.3618377" lon="103.0193783"><ele>2447.48</ele><time>2025-11-21T18:17:51.000Z</time></trkpt>
        <trkpt lat="29.3617447" lon="103.0193537"><ele>2450.37</ele><time>2025-11-21T18:18:15.000Z</time></trkpt>
        <trkpt lat="29.361652" lon="103.0193289"><ele>2453.59</ele><time>2025-11-21T18:18:35.000Z</time></trkpt>
        <trkpt lat="29.361559" lon="103.01932"><ele>2456.13</ele><time>2025-11-21T18:18:55.000Z</time></trkpt>
        <trkpt lat="29.3614714" lon="103.0193483"><ele>2459.8</ele><time>2025-11-21T18:19:21.000Z</time></trkpt>
        <trkpt lat="29.3613819" lon="103.0193605"><ele>2464.33</ele><time>2025-11-21T18:19:51.000Z</time></trkpt>
        <trkpt lat="29.3612939" lon="103.0193353"><ele>2468.64</ele><time>2025-11-21T18:20:16.000Z</time></trkpt>
        <trkpt lat="29.3612022" lon="103.0193342"><ele>2472.9</ele><time>2025-11-21T18:20:49.000Z</time></trkpt>
        <trkpt lat="29.3611043" lon="103.019326"><ele>2477.03</ele><time>2025-11-21T18:21:13.000Z</time></trkpt>
        <trkpt lat="29.3610131" lon="103.0193557"><ele>2480.77</ele><time>2025-11-21T18:21:53.000Z</time></trkpt>
        <trkpt lat="29.3609229" lon="103.0193842"><ele>2486.03</ele><time>2025-11-21T18:22:15.000Z</time></trkpt>
        <trkpt lat="29.3608346" lon="103.0194177"><ele>2490.38</ele><time>2025-11-21T18:22:41.000Z</time></trkpt>
        <trkpt lat="29.360744" lon="103.0194438"><ele>2495.28</ele><time>2025-11-21T18:23:01.000Z</time></trkpt>
        <trkpt lat="29.3606539" lon="103.0194674"><ele>2499.62</ele><time>2025-11-21T18:23:21.000Z</time></trkpt>
        <trkpt lat="29.3605771" lon="103.0195225"><ele>2502.74</ele><time>2025-11-21T18:23:41.000Z</time></trkpt>
        <trkpt lat="29.3605295" lon="103.019617"><ele>2506.03</ele><time>2025-11-21T18:24:21.000Z</time></trkpt>
        <trkpt lat="29.3604515" lon="103.0196744"><ele>2509.28</ele><time>2025-11-21T18:24:39.000Z</time></trkpt>
        <trkpt lat="29.3603583" lon="103.0196869"><ele>2512.1</ele><time>2025-11-21T18:25:01.000Z</time></trkpt>
        <trkpt lat="29.3602823" lon="103.0196265"><ele>2514.32</ele><time>2025-11-21T18:25:27.000Z</time></trkpt>
        <trkpt lat="29.3602117" lon="103.0195479"><ele>2517.51</ele><time>2025-11-21T18:25:55.000Z</time></trkpt>
        <trkpt lat="29.3601366" lon="103.0194799"><ele>2521.81</ele><time>2025-11-21T18:26:33.000Z</time></trkpt>
        <trkpt lat="29.3600544" lon="103.0194923"><ele>2526.75</ele><time>2025-11-21T18:27:07.000Z</time></trkpt>
        <trkpt lat="29.3599778" lon="103.0195537"><ele>2531.92</ele><time>2025-11-21T18:27:37.000Z</time></trkpt>
        <trkpt lat="29.3599017" lon="103.019536"><ele>2535.95</ele><time>2025-11-21T18:28:19.000Z</time></trkpt>
        <trkpt lat="29.3598341" lon="103.0195814"><ele>2540.67</ele><time>2025-11-21T18:29:07.000Z</time></trkpt>
        <trkpt lat="29.3597643" lon="103.0196443"><ele>2546.61</ele><time>2025-11-21T18:29:37.000Z</time></trkpt>
        <trkpt lat="29.3596909" lon="103.0197084"><ele>2551.41</ele><time>2025-11-21T18:30:13.000Z</time></trkpt>
        <trkpt lat="29.3596092" lon="103.0197571"><ele>2556.51</ele><time>2025-11-21T18:30:45.000Z</time></trkpt>
        <trkpt lat="29.3595459" lon="103.0198375"><ele>2560.95</ele><time>2025-11-21T18:31:11.000Z</time></trkpt>
        <trkpt lat="29.3594584" lon="103.0198742"><ele>2564.32</ele><time>2025-11-21T18:31:47.000Z</time></trkpt>
        <trkpt lat="29.3593697" lon="103.0198498"><ele>2567.67</ele><time>2025-11-21T18:32:43.000Z</time></trkpt>
        <trkpt lat="29.3592962" lon="103.0197753"><ele>2574.62</ele><time>2025-11-21T18:33:27.000Z</time></trkpt>
        <trkpt lat="29.3592348" lon="103.0196853"><ele>2581.01</ele><time>2025-11-21T18:34:03.000Z</time></trkpt>
        <trkpt lat="29.3591515" lon="103.0196732"><ele>2586.28</ele><time>2025-11-21T18:34:55.000Z</time></trkpt>
        <trkpt lat="29.3590633" lon="103.0196966"><ele>2592.52</ele><time>2025-11-21T18:35:31.000Z</time></trkpt>
        <trkpt lat="29.3589691" lon="103.0197228"><ele>2598.45</ele><time>2025-11-21T18:36:07.000Z</time></trkpt>
        <trkpt lat="29.3589691" lon="103.0197228"><ele>2598.45</ele><time>2025-11-21T18:36:39.000Z</time></trkpt>
        <trkpt lat="29.3589691" lon="103.0197228"><ele>2598.45</ele><time>2025-11-21T18:36:45.000Z</time></trkpt>
        <trkpt lat="29.3589691" lon="103.0197228"><ele>2598.45</ele><time>2025-11-21T18:37:13.000Z</time></trkpt>
        <trkpt lat="29.3589691" lon="103.0197228"><ele>2598.45</ele><time>2025-11-21T18:37:21.000Z</time></trkpt>
        <trkpt lat="29.3589691" lon="103.0197228"><ele>2598.45</ele><time>2025-11-21T18:37:37.000Z</time></trkpt>
        <trkpt lat="29.358871" lon="103.0197398"><ele>2603.85</ele><time>2025-11-21T18:38:29.000Z</time></trkpt>
        <trkpt lat="29.358871" lon="103.0197398"><ele>2603.85</ele><time>2025-11-21T18:39:25.000Z</time></trkpt>
        <trkpt lat="29.3588052" lon="103.0198147"><ele>2609.93</ele><time>2025-11-21T18:39:55.000Z</time></trkpt>
        <trkpt lat="29.3587187" lon="103.0198179"><ele>2616.56</ele><time>2025-11-21T18:40:47.000Z</time></trkpt>
        <trkpt lat="29.3587187" lon="103.0198179"><ele>2616.56</ele><time>2025-11-21T18:41:03.000Z</time></trkpt>
        <trkpt lat="29.3586283" lon="103.0198371"><ele>2623.81</ele><time>2025-11-21T18:42:13.000Z</time></trkpt>
        <trkpt lat="29.3586283" lon="103.0198371"><ele>2623.81</ele><time>2025-11-21T18:42:55.000Z</time></trkpt>
        <trkpt lat="29.3585654" lon="103.0199135"><ele>2630.24</ele><time>2025-11-21T18:43:29.000Z</time></trkpt>
        <trkpt lat="29.3584818" lon="103.0198932"><ele>2635.35</ele><time>2025-11-21T18:44:03.000Z</time></trkpt>
        <trkpt lat="29.3583949" lon="103.0199103"><ele>2639.8</ele><time>2025-11-21T18:44:47.000Z</time></trkpt>
        <trkpt lat="29.3583149" lon="103.0199574"><ele>2646.3</ele><time>2025-11-21T18:45:23.000Z</time></trkpt>
        <trkpt lat="29.3582549" lon="103.0198869"><ele>2652.6</ele><time>2025-11-21T18:46:27.000Z</time></trkpt>
        <trkpt lat="29.3582549" lon="103.0198869"><ele>2652.6</ele><time>2025-11-21T18:47:11.000Z</time></trkpt>
        <trkpt lat="29.3582722" lon="103.0197821"><ele>2657.39</ele><time>2025-11-21T18:47:15.000Z</time></trkpt>
        <trkpt lat="29.3582722" lon="103.0197821"><ele>2657.39</ele><time>2025-11-21T18:47:37.000Z</time></trkpt>
        <trkpt lat="29.358292" lon="103.0196794"><ele>2662.57</ele><time>2025-11-21T18:48:23.000Z</time></trkpt>
        <trkpt lat="29.3583387" lon="103.019587"><ele>2667.49</ele><time>2025-11-21T18:49:51.000Z</time></trkpt>
        <trkpt lat="29.3583683" lon="103.019487"><ele>2677.63</ele><time>2025-11-21T18:50:35.000Z</time></trkpt>
        <trkpt lat="29.3584513" lon="103.0194425"><ele>2684.11</ele><time>2025-11-21T18:50:59.000Z</time></trkpt>
        <trkpt lat="29.3585416" lon="103.0194433"><ele>2688.63</ele><time>2025-11-21T18:51:17.000Z</time></trkpt>
        <trkpt lat="29.3586122" lon="103.0193915"><ele>2691.25</ele><time>2025-11-21T18:51:43.000Z</time></trkpt>
        <trkpt lat="29.3586391" lon="103.0192989"><ele>2691.8</ele><time>2025-11-21T18:52:23.000Z</time></trkpt>
        <trkpt lat="29.3586391" lon="103.0192989"><ele>2691.8</ele><time>2025-11-21T18:54:01.000Z</time></trkpt>
        <trkpt lat="29.3586391" lon="103.0192989"><ele>2691.8</ele><time>2025-11-21T18:54:05.000Z</time></trkpt>
        <trkpt lat="29.3586391" lon="103.0192989"><ele>2691.8</ele><time>2025-11-21T18:54:43.000Z</time></trkpt>
        <trkpt lat="29.3585315" lon="103.0193064"><ele>2694.76</ele><time>2025-11-21T18:55:19.000Z</time></trkpt>
        <trkpt lat="29.3585315" lon="103.0193064"><ele>2694.76</ele><time>2025-11-21T18:55:21.000Z</time></trkpt>
        <trkpt lat="29.3585315" lon="103.0193064"><ele>2694.76</ele><time>2025-11-21T18:55:45.000Z</time></trkpt>
        <trkpt lat="29.3584757" lon="103.0192157"><ele>2703.8</ele><time>2025-11-21T18:56:17.000Z</time></trkpt>
        <trkpt lat="29.3584757" lon="103.0192157"><ele>2703.8</ele><time>2025-11-21T18:57:07.000Z</time></trkpt>
        <trkpt lat="29.3584012" lon="103.0191454"><ele>2710.23</ele><time>2025-11-21T18:58:31.000Z</time></trkpt>
        <trkpt lat="29.3583407" lon="103.0190653"><ele>2718.9</ele><time>2025-11-21T18:59:57.000Z</time></trkpt>
        <trkpt lat="29.3583068" lon="103.0190477"><ele>2726.61</ele><time>2025-11-21T19:00:09.000Z</time></trkpt>
        <trkpt lat="29.3582257" lon="103.0190367"><ele>2731.44</ele><time>2025-11-21T19:00:59.000Z</time></trkpt>
        <trkpt lat="29.3582257" lon="103.0190367"><ele>2731.44</ele><time>2025-11-21T19:02:21.000Z</time></trkpt>
        <trkpt lat="29.3581689" lon="103.0189474"><ele>2737.64</ele><time>2025-11-21T19:02:37.000Z</time></trkpt>
        <trkpt lat="29.3581689" lon="103.0189474"><ele>2737.64</ele><time>2025-11-21T19:02:37.000Z</time></trkpt>
        <trkpt lat="29.3581976" lon="103.0188436"><ele>2744.17</ele><time>2025-11-21T19:02:57.000Z</time></trkpt>
        <trkpt lat="29.3582583" lon="103.0187652"><ele>2747.28</ele><time>2025-11-21T19:03:37.000Z</time></trkpt>
        <trkpt lat="29.3583331" lon="103.0187059"><ele>2753.4</ele><time>2025-11-21T19:04:09.000Z</time></trkpt>
        <trkpt lat="29.3583743" lon="103.0186173"><ele>2759.08</ele><time>2025-11-21T19:04:47.000Z</time></trkpt>
        <trkpt lat="29.3584053" lon="103.0185189"><ele>2764.45</ele><time>2025-11-21T19:05:48.000Z</time></trkpt>
        <trkpt lat="29.3584053" lon="103.0185189"><ele>2764.45</ele><time>2025-11-21T19:07:37.000Z</time></trkpt>
        <trkpt lat="29.3583364" lon="103.0184449"><ele>2769.22</ele><time>2025-11-21T19:09:07.000Z</time></trkpt>
        <trkpt lat="29.3583364" lon="103.0184449"><ele>2769.22</ele><time>2025-11-21T19:09:20.000Z</time></trkpt>
        <trkpt lat="29.358257" lon="103.0185084"><ele>2775.13</ele><time>2025-11-21T19:09:40.000Z</time></trkpt>
        <trkpt lat="29.3581667" lon="103.018518"><ele>2780.89</ele><time>2025-11-21T19:11:04.000Z</time></trkpt>
        <trkpt lat="29.3581667" lon="103.018518"><ele>2780.89</ele><time>2025-11-21T19:11:45.000Z</time></trkpt>
        <trkpt lat="29.3581667" lon="103.018518"><ele>2780.89</ele><time>2025-11-21T19:11:51.000Z</time></trkpt>
        <trkpt lat="29.3581667" lon="103.018518"><ele>2780.89</ele><time>2025-11-21T19:12:05.000Z</time></trkpt>
        <trkpt lat="29.3581667" lon="103.018518"><ele>2780.89</ele><time>2025-11-21T19:12:09.000Z</time></trkpt>
        <trkpt lat="29.3581667" lon="103.018518"><ele>2780.89</ele><time>2025-11-21T19:12:27.000Z</time></trkpt>
        <trkpt lat="29.3580779" lon="103.0185444"><ele>2787.55</ele><time>2025-11-21T19:13:29.000Z</time></trkpt>
        <trkpt lat="29.3580779" lon="103.0185444"><ele>2787.55</ele><time>2025-11-21T19:13:56.000Z</time></trkpt>
        <trkpt lat="29.3580408" lon="103.0186465"><ele>2794.21</ele><time>2025-11-21T19:15:44.000Z</time></trkpt>
        <trkpt lat="29.3580408" lon="103.0186465"><ele>2794.21</ele><time>2025-11-21T19:16:21.000Z</time></trkpt>
        <trkpt lat="29.3580408" lon="103.0186465"><ele>2794.21</ele><time>2025-11-21T19:16:23.000Z</time></trkpt>
        <trkpt lat="29.3580408" lon="103.0186465"><ele>2794.21</ele><time>2025-11-21T19:16:39.000Z</time></trkpt>
        <trkpt lat="29.3580408" lon="103.0186465"><ele>2794.21</ele><time>2025-11-21T19:16:59.000Z</time></trkpt>
        <trkpt lat="29.3580408" lon="103.0186465"><ele>2794.21</ele><time>2025-11-21T19:17:15.000Z</time></trkpt>
        <trkpt lat="29.3579509" lon="103.0186387"><ele>2800.71</ele><time>2025-11-21T19:17:19.000Z</time></trkpt>
        <trkpt lat="29.3579509" lon="103.0186387"><ele>2800.71</ele><time>2025-11-21T19:18:02.000Z</time></trkpt>
        <trkpt lat="29.3579509" lon="103.0186387"><ele>2800.71</ele><time>2025-11-21T19:18:17.000Z</time></trkpt>
        <trkpt lat="29.3578801" lon="103.0187026"><ele>2806.5</ele><time>2025-11-21T19:18:19.000Z</time></trkpt>
        <trkpt lat="29.3578801" lon="103.0187026"><ele>2806.5</ele><time>2025-11-21T19:19:36.000Z</time></trkpt>
        <trkpt lat="29.3577853" lon="103.018709"><ele>2813.94</ele><time>2025-11-21T19:20:20.000Z</time></trkpt>
        <trkpt lat="29.3577793" lon="103.018619"><ele>2819.42</ele><time>2025-11-21T19:21:08.000Z</time></trkpt>
        <trkpt lat="29.3577793" lon="103.018619"><ele>2819.42</ele><time>2025-11-21T19:23:39.000Z</time></trkpt>
        <trkpt lat="29.3577793" lon="103.018619"><ele>2819.42</ele><time>2025-11-21T19:24:13.000Z</time></trkpt>
        <trkpt lat="29.3577793" lon="103.018619"><ele>2819.42</ele><time>2025-11-21T19:24:27.000Z</time></trkpt>
        <trkpt lat="29.3577069" lon="103.0185807"><ele>2825.44</ele><time>2025-11-21T19:24:31.000Z</time></trkpt>
        <trkpt lat="29.3577069" lon="103.0185807"><ele>2825.44</ele><time>2025-11-21T19:24:34.000Z</time></trkpt>
        <trkpt lat="29.3577069" lon="103.0185807"><ele>2825.44</ele><time>2025-11-21T19:25:29.000Z</time></trkpt>
        <trkpt lat="29.3577069" lon="103.0185807"><ele>2825.44</ele><time>2025-11-21T19:26:11.000Z</time></trkpt>
        <trkpt lat="29.3577069" lon="103.0185807"><ele>2825.44</ele><time>2025-11-21T19:27:01.000Z</time></trkpt>
        <trkpt lat="29.3576315" lon="103.0185224"><ele>2834.97</ele><time>2025-11-21T19:27:15.000Z</time></trkpt>
        <trkpt lat="29.3576315" lon="103.0185224"><ele>2834.97</ele><time>2025-11-21T19:27:16.000Z</time></trkpt>
        <trkpt lat="29.3575465" lon="103.018574"><ele>2844.81</ele><time>2025-11-21T19:28:22.000Z</time></trkpt>
        <trkpt lat="29.3575465" lon="103.018574"><ele>2844.81</ele><time>2025-11-21T19:29:11.000Z</time></trkpt>
        <trkpt lat="29.3574633" lon="103.0186181"><ele>2852.26</ele><time>2025-11-21T19:29:33.000Z</time></trkpt>
        <trkpt lat="29.3574633" lon="103.0186181"><ele>2852.26</ele><time>2025-11-21T19:30:25.000Z</time></trkpt>
        <trkpt lat="29.3573646" lon="103.0186311"><ele>2860.57</ele><time>2025-11-21T19:32:03.000Z</time></trkpt>
        <trkpt lat="29.3572894" lon="103.01869"><ele>2869.9</ele><time>2025-11-21T19:33:19.000Z</time></trkpt>
        <trkpt lat="29.3571999" lon="103.0187341"><ele>2879.78</ele><time>2025-11-21T19:34:15.000Z</time></trkpt>
        <trkpt lat="29.3571572" lon="103.0188376"><ele>2888.38</ele><time>2025-11-21T19:35:51.000Z</time></trkpt>
        <trkpt lat="29.3571572" lon="103.0188376"><ele>2888.38</ele><time>2025-11-21T19:36:49.000Z</time></trkpt>
        <trkpt lat="29.3571572" lon="103.0188376"><ele>2888.38</ele><time>2025-11-21T19:39:19.000Z</time></trkpt>
        <trkpt lat="29.3571572" lon="103.0188376"><ele>2888.38</ele><time>2025-11-21T19:39:35.000Z</time></trkpt>
        <trkpt lat="29.3571015" lon="103.0189214"><ele>2896.67</ele><time>2025-11-21T19:39:37.000Z</time></trkpt>
        <trkpt lat="29.3571015" lon="103.0189214"><ele>2896.67</ele><time>2025-11-21T19:39:57.000Z</time></trkpt>
        <trkpt lat="29.3571015" lon="103.0189214"><ele>2896.67</ele><time>2025-11-21T19:40:31.000Z</time></trkpt>
        <trkpt lat="29.3571015" lon="103.0189214"><ele>2896.67</ele><time>2025-11-21T19:40:37.000Z</time></trkpt>
        <trkpt lat="29.3571015" lon="103.0189214"><ele>2896.67</ele><time>2025-11-21T19:41:05.000Z</time></trkpt>
        <trkpt lat="29.3570575" lon="103.0190194"><ele>2903.31</ele><time>2025-11-21T19:41:07.000Z</time></trkpt>
        <trkpt lat="29.3570575" lon="103.0190194"><ele>2903.31</ele><time>2025-11-21T19:41:34.000Z</time></trkpt>
        <trkpt lat="29.3570138" lon="103.0191195"><ele>2910.68</ele><time>2025-11-21T19:42:20.000Z</time></trkpt>
        <trkpt lat="29.3569432" lon="103.0191929"><ele>2916.15</ele><time>2025-11-21T19:42:38.000Z</time></trkpt>
        <trkpt lat="29.3568772" lon="103.0192701"><ele>2920.27</ele><time>2025-11-21T19:42:58.000Z</time></trkpt>
        <trkpt lat="29.3567997" lon="103.0193243"><ele>2924.01</ele><time>2025-11-21T19:43:26.000Z</time></trkpt>
        <trkpt lat="29.3567611" lon="103.0194125"><ele>2927.87</ele><time>2025-11-21T19:43:42.000Z</time></trkpt>
        <trkpt lat="29.3567316" lon="103.0195147"><ele>2930.84</ele><time>2025-11-21T19:44:06.000Z</time></trkpt>
        <trkpt lat="29.3566822" lon="103.0196021"><ele>2934.59</ele><time>2025-11-21T19:44:32.000Z</time></trkpt>
        <trkpt lat="29.3566231" lon="103.0196844"><ele>2936.15</ele><time>2025-11-21T19:45:18.000Z</time></trkpt>
        <trkpt lat="29.3565847" lon="103.0197791"><ele>2939.11</ele><time>2025-11-21T19:45:42.000Z</time></trkpt>
        <trkpt lat="29.3565748" lon="103.0198053"><ele>2941.47</ele><time>2025-11-21T19:45:44.000Z</time></trkpt>
        <trkpt lat="29.3565748" lon="103.0198053"><ele>2941.47</ele><time>2025-11-21T19:46:17.000Z</time></trkpt>
        <trkpt lat="29.3565748" lon="103.0198053"><ele>2941.47</ele><time>2025-11-21T19:48:41.000Z</time></trkpt>
        <trkpt lat="29.3565748" lon="103.0198053"><ele>2941.47</ele><time>2025-11-21T19:49:03.000Z</time></trkpt>
        <trkpt lat="29.3565748" lon="103.0198053"><ele>2941.47</ele><time>2025-11-21T19:50:09.000Z</time></trkpt>
        <trkpt lat="29.3565748" lon="103.0198053"><ele>2941.47</ele><time>2025-11-21T19:50:25.000Z</time></trkpt>
        <trkpt lat="29.3565748" lon="103.0198053"><ele>2941.47</ele><time>2025-11-21T19:50:51.000Z</time></trkpt>
        <trkpt lat="29.3565748" lon="103.0198053"><ele>2941.47</ele><time>2025-11-21T19:51:07.000Z</time></trkpt>
        <trkpt lat="29.3565313" lon="103.0198718"><ele>2942.87</ele><time>2025-11-21T19:54:17.000Z</time></trkpt>
        <trkpt lat="29.3565313" lon="103.0198718"><ele>2942.87</ele><time>2025-11-21T19:55:06.000Z</time></trkpt>
        <trkpt lat="29.3564521" lon="103.0199458"><ele>2945.32</ele><time>2025-11-21T19:55:42.000Z</time></trkpt>
        <trkpt lat="29.356365" lon="103.0199787"><ele>2950.16</ele><time>2025-11-21T19:55:58.000Z</time></trkpt>
        <trkpt lat="29.3562949" lon="103.0200413"><ele>2953.29</ele><time>2025-11-21T19:56:14.000Z</time></trkpt>
        <trkpt lat="29.3562069" lon="103.0200677"><ele>2956.63</ele><time>2025-11-21T19:56:30.000Z</time></trkpt>
        <trkpt lat="29.3561158" lon="103.0200649"><ele>2958.21</ele><time>2025-11-21T19:56:42.000Z</time></trkpt>
        <trkpt lat="29.3560399" lon="103.0201189"><ele>2958.49</ele><time>2025-11-21T19:56:54.000Z</time></trkpt>
        <trkpt lat="29.3559735" lon="103.0201968"><ele>2958.03</ele><time>2025-11-21T19:57:08.000Z</time></trkpt>
        <trkpt lat="29.3558818" lon="103.0201934"><ele>2957.53</ele><time>2025-11-21T19:57:24.000Z</time></trkpt>
        <trkpt lat="29.3557944" lon="103.0202232"><ele>2957.62</ele><time>2025-11-21T19:57:48.000Z</time></trkpt>
        <trkpt lat="29.3557209" lon="103.020292"><ele>2958.62</ele><time>2025-11-21T19:58:26.000Z</time></trkpt>
        <trkpt lat="29.3556236" lon="103.0203229"><ele>2960.97</ele><time>2025-11-21T19:58:54.000Z</time></trkpt>
        <trkpt lat="29.3555351" lon="103.0203695"><ele>2964.5</ele><time>2025-11-21T19:59:24.000Z</time></trkpt>
        <trkpt lat="29.3554491" lon="103.0203516"><ele>2968.49</ele><time>2025-11-21T19:59:36.000Z</time></trkpt>
        <trkpt lat="29.3553595" lon="103.0203197"><ele>2971.53</ele><time>2025-11-21T19:59:54.000Z</time></trkpt>
        <trkpt lat="29.3553595" lon="103.0203197"><ele>2971.53</ele><time>2025-11-21T20:00:17.000Z</time></trkpt>
        <trkpt lat="29.3552648" lon="103.0202992"><ele>2973.42</ele><time>2025-11-21T20:00:19.000Z</time></trkpt>
        <trkpt lat="29.3552648" lon="103.0202992"><ele>2973.42</ele><time>2025-11-21T20:00:20.000Z</time></trkpt>
        <trkpt lat="29.3551653" lon="103.0203241"><ele>2974.22</ele><time>2025-11-21T20:01:02.000Z</time></trkpt>
        <trkpt lat="29.3550704" lon="103.0203256"><ele>2973.57</ele><time>2025-11-21T20:01:14.000Z</time></trkpt>
        <trkpt lat="29.3550029" lon="103.0203115"><ele>2973.06</ele><time>2025-11-21T20:01:28.000Z</time></trkpt>
        <trkpt lat="29.3550029" lon="103.0203115"><ele>2973.06</ele><time>2025-11-21T20:02:23.000Z</time></trkpt>
        <trkpt lat="29.3549214" lon="103.0202943"><ele>2973.48</ele><time>2025-11-21T20:03:19.000Z</time></trkpt>
        <trkpt lat="29.3549214" lon="103.0202943"><ele>2973.48</ele><time>2025-11-21T20:04:12.000Z</time></trkpt>
        <trkpt lat="29.3548302" lon="103.0202846"><ele>2975.9</ele><time>2025-11-21T20:05:02.000Z</time></trkpt>
        <trkpt lat="29.3548302" lon="103.0202846"><ele>2975.9</ele><time>2025-11-21T20:05:45.000Z</time></trkpt>
        <trkpt lat="29.3548302" lon="103.0202846"><ele>2975.9</ele><time>2025-11-21T20:05:53.000Z</time></trkpt>
        <trkpt lat="29.3548302" lon="103.0202846"><ele>2975.9</ele><time>2025-11-21T20:06:35.000Z</time></trkpt>
        <trkpt lat="29.3547377" lon="103.0202877"><ele>2977.61</ele><time>2025-11-21T20:06:53.000Z</time></trkpt>
        <trkpt lat="29.3547377" lon="103.0202877"><ele>2977.61</ele><time>2025-11-21T20:07:06.000Z</time></trkpt>
        <trkpt lat="29.3546663" lon="103.0202223"><ele>2980.69</ele><time>2025-11-21T20:07:22.000Z</time></trkpt>
        <trkpt lat="29.3545713" lon="103.0202255"><ele>2982.62</ele><time>2025-11-21T20:07:40.000Z</time></trkpt>
        <trkpt lat="29.3544773" lon="103.020214"><ele>2983.26</ele><time>2025-11-21T20:08:00.000Z</time></trkpt>
        <trkpt lat="29.3544079" lon="103.0202735"><ele>2985.04</ele><time>2025-11-21T20:08:20.000Z</time></trkpt>
        <trkpt lat="29.3544079" lon="103.0202735"><ele>2985.04</ele><time>2025-11-21T20:08:31.000Z</time></trkpt>
        <trkpt lat="29.3544079" lon="103.0202735"><ele>2985.04</ele><time>2025-11-21T20:08:41.000Z</time></trkpt>
        <trkpt lat="29.3544079" lon="103.0202735"><ele>2985.04</ele><time>2025-11-21T20:08:57.000Z</time></trkpt>
        <trkpt lat="29.3543242" lon="103.0202439"><ele>2986.13</ele><time>2025-11-21T20:10:01.000Z</time></trkpt>
        <trkpt lat="29.3543242" lon="103.0202439"><ele>2986.13</ele><time>2025-11-21T20:10:48.000Z</time></trkpt>
        <trkpt lat="29.3542325" lon="103.0202517"><ele>2990.18</ele><time>2025-11-21T20:11:06.000Z</time></trkpt>
        <trkpt lat="29.3542325" lon="103.0202517"><ele>2990.18</ele><time>2025-11-21T20:12:03.000Z</time></trkpt>
        <trkpt lat="29.3541371" lon="103.020253"><ele>2993.34</ele><time>2025-11-21T20:12:55.000Z</time></trkpt>
        <trkpt lat="29.3541371" lon="103.020253"><ele>2993.34</ele><time>2025-11-21T20:13:06.000Z</time></trkpt>
        <trkpt lat="29.3540533" lon="103.0202036"><ele>2997.61</ele><time>2025-11-21T20:13:30.000Z</time></trkpt>
        <trkpt lat="29.3539631" lon="103.0201719"><ele>3001.05</ele><time>2025-11-21T20:13:52.000Z</time></trkpt>
        <trkpt lat="29.3539486" lon="103.0200776"><ele>3004.04</ele><time>2025-11-21T20:14:10.000Z</time></trkpt>
        <trkpt lat="29.3539259" lon="103.0200342"><ele>3004.99</ele><time>2025-11-21T20:14:18.000Z</time></trkpt>
        <trkpt lat="29.3538589" lon="103.0200049"><ele>3006</ele><time>2025-11-21T20:14:58.000Z</time></trkpt>
        <trkpt lat="29.3537812" lon="103.0199585"><ele>3008.09</ele><time>2025-11-21T20:15:40.000Z</time></trkpt>
        <trkpt lat="29.3536992" lon="103.0198987"><ele>3010.35</ele><time>2025-11-21T20:16:06.000Z</time></trkpt>
        <trkpt lat="29.353638" lon="103.0198179"><ele>3012.75</ele><time>2025-11-21T20:16:50.000Z</time></trkpt>
        <trkpt lat="29.3535778" lon="103.0198557"><ele>3017.31</ele><time>2025-11-21T20:17:16.000Z</time></trkpt>
        <trkpt lat="29.3535003" lon="103.0198405"><ele>3022.11</ele><time>2025-11-21T20:17:53.000Z</time></trkpt>
        <trkpt lat="29.3535003" lon="103.0198405"><ele>3022.11</ele><time>2025-11-21T20:18:27.000Z</time></trkpt>
        <trkpt lat="29.353481" lon="103.0197336"><ele>3025.37</ele><time>2025-11-21T20:18:41.000Z</time></trkpt>
        <trkpt lat="29.353481" lon="103.0197336"><ele>3025.37</ele><time>2025-11-21T20:19:11.000Z</time></trkpt>
        <trkpt lat="29.3534255" lon="103.0196255"><ele>3030.24</ele><time>2025-11-21T20:20:10.000Z</time></trkpt>
        <trkpt lat="29.3534255" lon="103.0196255"><ele>3030.24</ele><time>2025-11-21T20:22:03.000Z</time></trkpt>
        <trkpt lat="29.3534255" lon="103.0196255"><ele>3030.24</ele><time>2025-11-21T20:22:09.000Z</time></trkpt>
        <trkpt lat="29.3534255" lon="103.0196255"><ele>3030.24</ele><time>2025-11-21T20:22:25.000Z</time></trkpt>
        <trkpt lat="29.3534255" lon="103.0196255"><ele>3030.24</ele><time>2025-11-21T20:22:39.000Z</time></trkpt>
        <trkpt lat="29.3534255" lon="103.0196255"><ele>3030.24</ele><time>2025-11-21T20:22:55.000Z</time></trkpt>
        <trkpt lat="29.3534255" lon="103.0196255"><ele>3030.24</ele><time>2025-11-21T20:23:05.000Z</time></trkpt>
        <trkpt lat="29.3534255" lon="103.0196255"><ele>3030.24</ele><time>2025-11-21T20:23:35.000Z</time></trkpt>
        <trkpt lat="29.3534255" lon="103.0196255"><ele>3030.24</ele><time>2025-11-21T20:24:35.000Z</time></trkpt>
        <trkpt lat="29.3534255" lon="103.0196255"><ele>3030.24</ele><time>2025-11-21T20:24:55.000Z</time></trkpt>
        <trkpt lat="29.3534255" lon="103.0196255"><ele>3030.24</ele><time>2025-11-21T20:25:17.000Z</time></trkpt>
        <trkpt lat="29.3534255" lon="103.0196255"><ele>3030.24</ele><time>2025-11-21T20:25:31.000Z</time></trkpt>
        <trkpt lat="29.3533962" lon="103.0195164"><ele>3034.95</ele><time>2025-11-21T20:25:33.000Z</time></trkpt>
        <trkpt lat="29.3533962" lon="103.0195164"><ele>3034.95</ele><time>2025-11-21T20:25:49.000Z</time></trkpt>
        <trkpt lat="29.3533962" lon="103.0195164"><ele>3034.95</ele><time>2025-11-21T20:26:09.000Z</time></trkpt>
        <trkpt lat="29.3533962" lon="103.0195164"><ele>3034.95</ele><time>2025-11-21T20:27:13.000Z</time></trkpt>
        <trkpt lat="29.3533962" lon="103.0195164"><ele>3034.95</ele><time>2025-11-21T20:27:39.000Z</time></trkpt>
        <trkpt lat="29.3533034" lon="103.0194963"><ele>3042.31</ele><time>2025-11-21T20:28:35.000Z</time></trkpt>
        <trkpt lat="29.3533034" lon="103.0194963"><ele>3042.31</ele><time>2025-11-21T20:29:11.000Z</time></trkpt>
        <trkpt lat="29.3533034" lon="103.0194963"><ele>3042.31</ele><time>2025-11-21T20:29:15.000Z</time></trkpt>
        <trkpt lat="29.3533034" lon="103.0194963"><ele>3042.31</ele><time>2025-11-21T20:30:03.000Z</time></trkpt>
        <trkpt lat="29.3533034" lon="103.0194963"><ele>3042.31</ele><time>2025-11-21T20:30:25.000Z</time></trkpt>
        <trkpt lat="29.3533034" lon="103.0194963"><ele>3042.31</ele><time>2025-11-21T20:30:29.000Z</time></trkpt>
        <trkpt lat="29.3533034" lon="103.0194963"><ele>3042.31</ele><time>2025-11-21T20:31:41.000Z</time></trkpt>
        <trkpt lat="29.3533034" lon="103.0194963"><ele>3042.31</ele><time>2025-11-21T20:32:23.000Z</time></trkpt>
        <trkpt lat="29.3533034" lon="103.0194963"><ele>3042.31</ele><time>2025-11-21T20:32:39.000Z</time></trkpt>
        <trkpt lat="29.3533034" lon="103.0194963"><ele>3042.31</ele><time>2025-11-21T20:33:35.000Z</time></trkpt>
        <trkpt lat="29.3533034" lon="103.0194963"><ele>3042.31</ele><time>2025-11-21T20:33:51.000Z</time></trkpt>
        <trkpt lat="29.3533034" lon="103.0194963"><ele>3042.31</ele><time>2025-11-21T20:36:39.000Z</time></trkpt>
        <trkpt lat="29.3533034" lon="103.0194963"><ele>3042.31</ele><time>2025-11-21T20:36:55.000Z</time></trkpt>
        <trkpt lat="29.3533034" lon="103.0194963"><ele>3042.31</ele><time>2025-11-21T20:36:57.000Z</time></trkpt>
        <trkpt lat="29.3533034" lon="103.0194963"><ele>3042.31</ele><time>2025-11-21T20:37:17.000Z</time></trkpt>
        <trkpt lat="29.3532714" lon="103.019602"><ele>3046.54</ele><time>2025-11-21T20:37:23.000Z</time></trkpt>
        <trkpt lat="29.3532714" lon="103.019602"><ele>3046.54</ele><time>2025-11-21T20:37:45.000Z</time></trkpt>
        <trkpt lat="29.3532714" lon="103.019602"><ele>3046.54</ele><time>2025-11-21T20:38:29.000Z</time></trkpt>
        <trkpt lat="29.3531808" lon="103.0195991"><ele>3054.11</ele><time>2025-11-21T20:39:21.000Z</time></trkpt>
        <trkpt lat="29.3531808" lon="103.0195991"><ele>3054.11</ele><time>2025-11-21T20:39:53.000Z</time></trkpt>
        <trkpt lat="29.35309" lon="103.0196048"><ele>3060.87</ele><time>2025-11-21T20:40:49.000Z</time></trkpt>
        <trkpt lat="29.35309" lon="103.0196048"><ele>3060.87</ele><time>2025-11-21T20:41:51.000Z</time></trkpt>
        <trkpt lat="29.35309" lon="103.0196048"><ele>3060.87</ele><time>2025-11-21T20:43:59.000Z</time></trkpt>
        <trkpt lat="29.35309" lon="103.0196048"><ele>3060.87</ele><time>2025-11-21T20:44:17.000Z</time></trkpt>
        <trkpt lat="29.3530577" lon="103.0195044"><ele>3067.52</ele><time>2025-11-21T20:45:23.000Z</time></trkpt>
        <trkpt lat="29.3530577" lon="103.0195044"><ele>3067.52</ele><time>2025-11-21T20:46:17.000Z</time></trkpt>
        <trkpt lat="29.3531106" lon="103.0194121"><ele>3073.65</ele><time>2025-11-21T20:46:45.000Z</time></trkpt>
        <trkpt lat="29.3531106" lon="103.0194121"><ele>3073.65</ele><time>2025-11-21T20:47:51.000Z</time></trkpt>
        <trkpt lat="29.3531106" lon="103.0194121"><ele>3073.65</ele><time>2025-11-21T20:48:07.000Z</time></trkpt>
        <trkpt lat="29.3531106" lon="103.0194121"><ele>3073.65</ele><time>2025-11-21T20:48:23.000Z</time></trkpt>
        <trkpt lat="29.3530263" lon="103.0193557"><ele>3078.94</ele><time>2025-11-21T20:48:33.000Z</time></trkpt>
        <trkpt lat="29.3530263" lon="103.0193557"><ele>3078.94</ele><time>2025-11-21T20:48:42.000Z</time></trkpt>
        <trkpt lat="29.3530263" lon="103.0193557"><ele>3078.94</ele><time>2025-11-21T20:49:39.000Z</time></trkpt>
        <trkpt lat="29.3530263" lon="103.0193557"><ele>3078.94</ele><time>2025-11-21T20:50:15.000Z</time></trkpt>
        <trkpt lat="29.3530263" lon="103.0193557"><ele>3078.94</ele><time>2025-11-21T20:50:31.000Z</time></trkpt>
        <trkpt lat="29.3529353" lon="103.0193415"><ele>3084.87</ele><time>2025-11-21T20:50:45.000Z</time></trkpt>
        <trkpt lat="29.3529353" lon="103.0193415"><ele>3084.87</ele><time>2025-11-21T20:50:54.000Z</time></trkpt>
        <trkpt lat="29.3528873" lon="103.019254"><ele>3092.23</ele><time>2025-11-21T20:51:46.000Z</time></trkpt>
        <trkpt lat="29.3528873" lon="103.019254"><ele>3092.23</ele><time>2025-11-21T20:52:05.000Z</time></trkpt>
        <trkpt lat="29.3528075" lon="103.0193024"><ele>3097.64</ele><time>2025-11-21T20:52:27.000Z</time></trkpt>
        <trkpt lat="29.3528075" lon="103.0193024"><ele>3097.64</ele><time>2025-11-21T20:53:12.000Z</time></trkpt>
        <trkpt lat="29.3528075" lon="103.0193024"><ele>3097.64</ele><time>2025-11-21T20:53:55.000Z</time></trkpt>
        <trkpt lat="29.3528075" lon="103.0193024"><ele>3097.64</ele><time>2025-11-21T20:54:49.000Z</time></trkpt>
        <trkpt lat="29.3528075" lon="103.0193024"><ele>3097.64</ele><time>2025-11-21T20:55:55.000Z</time></trkpt>
        <trkpt lat="29.3528075" lon="103.0193024"><ele>3097.64</ele><time>2025-11-21T20:55:57.000Z</time></trkpt>
        <trkpt lat="29.3528075" lon="103.0193024"><ele>3097.64</ele><time>2025-11-21T20:56:17.000Z</time></trkpt>
        <trkpt lat="29.3527265" lon="103.0192542"><ele>3104.58</ele><time>2025-11-21T20:56:31.000Z</time></trkpt>
        <trkpt lat="29.3527265" lon="103.0192542"><ele>3104.58</ele><time>2025-11-21T20:56:38.000Z</time></trkpt>
        <trkpt lat="29.3526613" lon="103.0193311"><ele>3113.37</ele><time>2025-11-21T20:57:32.000Z</time></trkpt>
        <trkpt lat="29.3526613" lon="103.0193311"><ele>3113.37</ele><time>2025-11-21T20:58:19.000Z</time></trkpt>
        <trkpt lat="29.3526613" lon="103.0193311"><ele>3113.37</ele><time>2025-11-21T20:58:23.000Z</time></trkpt>
        <trkpt lat="29.3526613" lon="103.0193311"><ele>3113.37</ele><time>2025-11-21T20:58:45.000Z</time></trkpt>
        <trkpt lat="29.3525821" lon="103.0192806"><ele>3121.56</ele><time>2025-11-21T20:59:43.000Z</time></trkpt>
        <trkpt lat="29.3525821" lon="103.0192806"><ele>3121.56</ele><time>2025-11-21T20:59:54.000Z</time></trkpt>
        <trkpt lat="29.3524876" lon="103.0192797"><ele>3129.13</ele><time>2025-11-21T21:00:38.000Z</time></trkpt>
        <trkpt lat="29.3524291" lon="103.0193567"><ele>3135.93</ele><time>2025-11-21T21:01:26.000Z</time></trkpt>
        <trkpt lat="29.3523608" lon="103.0194353"><ele>3143.68</ele><time>2025-11-21T21:01:46.000Z</time></trkpt>
        <trkpt lat="29.3523019" lon="103.0195208"><ele>3149.11</ele><time>2025-11-21T21:02:02.000Z</time></trkpt>
        <trkpt lat="29.3522181" lon="103.0195697"><ele>3154.05</ele><time>2025-11-21T21:02:26.000Z</time></trkpt>
        <trkpt lat="29.3521388" lon="103.0196232"><ele>3158.49</ele><time>2025-11-21T21:02:42.000Z</time></trkpt>
        <trkpt lat="29.3520508" lon="103.019651"><ele>3162.03</ele><time>2025-11-21T21:03:06.000Z</time></trkpt>
        <trkpt lat="29.3519611" lon="103.0196684"><ele>3164.84</ele><time>2025-11-21T21:03:30.000Z</time></trkpt>
        <trkpt lat="29.3518774" lon="103.0197209"><ele>3168.54</ele><time>2025-11-21T21:03:48.000Z</time></trkpt>
        <trkpt lat="29.3518774" lon="103.0197209"><ele>3168.54</ele><time>2025-11-21T21:04:15.000Z</time></trkpt>
        <trkpt lat="29.3517968" lon="103.0197008"><ele>3172.01</ele><time>2025-11-21T21:04:27.000Z</time></trkpt>
        <trkpt lat="29.3517968" lon="103.0197008"><ele>3172.01</ele><time>2025-11-21T21:04:28.000Z</time></trkpt>
        <trkpt lat="29.3516922" lon="103.0196936"><ele>3174.97</ele><time>2025-11-21T21:04:54.000Z</time></trkpt>
        <trkpt lat="29.3515977" lon="103.019716"><ele>3175.44</ele><time>2025-11-21T21:05:02.000Z</time></trkpt>
        <trkpt lat="29.3515041" lon="103.0197702"><ele>3175.4</ele><time>2025-11-21T21:05:10.000Z</time></trkpt>
        <trkpt lat="29.3514167" lon="103.0198159"><ele>3174.11</ele><time>2025-11-21T21:05:20.000Z</time></trkpt>
        <trkpt lat="29.3513337" lon="103.0198709"><ele>3174.02</ele><time>2025-11-21T21:05:30.000Z</time></trkpt>
        <trkpt lat="29.3512454" lon="103.0199304"><ele>3174.45</ele><time>2025-11-21T21:05:40.000Z</time></trkpt>
        <trkpt lat="29.3511864" lon="103.0200196"><ele>3175.6</ele><time>2025-11-21T21:05:50.000Z</time></trkpt>
        <trkpt lat="29.3511218" lon="103.020112"><ele>3175.53</ele><time>2025-11-21T21:06:00.000Z</time></trkpt>
        <trkpt lat="29.3510328" lon="103.0201773"><ele>3175.06</ele><time>2025-11-21T21:06:12.000Z</time></trkpt>
        <trkpt lat="29.3509343" lon="103.0202276"><ele>3174.57</ele><time>2025-11-21T21:06:20.000Z</time></trkpt>
        <trkpt lat="29.3508508" lon="103.0203048"><ele>3174.16</ele><time>2025-11-21T21:06:30.000Z</time></trkpt>
        <trkpt lat="29.3507947" lon="103.0203918"><ele>3173.46</ele><time>2025-11-21T21:06:38.000Z</time></trkpt>
        <trkpt lat="29.3507509" lon="103.0204943"><ele>3173.02</ele><time>2025-11-21T21:06:48.000Z</time></trkpt>
        <trkpt lat="29.3506875" lon="103.0205687"><ele>3173.57</ele><time>2025-11-21T21:06:58.000Z</time></trkpt>
        <trkpt lat="29.3506247" lon="103.0206461"><ele>3173.32</ele><time>2025-11-21T21:07:08.000Z</time></trkpt>
        <trkpt lat="29.3505444" lon="103.020716"><ele>3172.55</ele><time>2025-11-21T21:07:18.000Z</time></trkpt>
        <trkpt lat="29.3504579" lon="103.0207705"><ele>3171.96</ele><time>2025-11-21T21:07:26.000Z</time></trkpt>
        <trkpt lat="29.3503816" lon="103.0208324"><ele>3171.66</ele><time>2025-11-21T21:07:34.000Z</time></trkpt>
        <trkpt lat="29.3503277" lon="103.0209251"><ele>3170.49</ele><time>2025-11-21T21:07:44.000Z</time></trkpt>
        <trkpt lat="29.350302" lon="103.0209795"><ele>3170.63</ele><time>2025-11-21T21:07:54.000Z</time></trkpt>
        <trkpt lat="29.3502702" lon="103.0210631"><ele>3170.29</ele><time>2025-11-21T21:08:06.000Z</time></trkpt>
        <trkpt lat="29.3502185" lon="103.0211508"><ele>3170</ele><time>2025-11-21T21:08:16.000Z</time></trkpt>
        <trkpt lat="29.350143" lon="103.0212153"><ele>3170.73</ele><time>2025-11-21T21:08:26.000Z</time></trkpt>
        <trkpt lat="29.3500858" lon="103.0213012"><ele>3171.31</ele><time>2025-11-21T21:08:36.000Z</time></trkpt>
        <trkpt lat="29.3500343" lon="103.0213964"><ele>3171.37</ele><time>2025-11-21T21:09:12.000Z</time></trkpt>
        <trkpt lat="29.3500032" lon="103.0215086"><ele>3171.49</ele><time>2025-11-21T21:09:22.000Z</time></trkpt>
        <trkpt lat="29.3499458" lon="103.0216091"><ele>3171.08</ele><time>2025-11-21T21:09:34.000Z</time></trkpt>
        <trkpt lat="29.3499987" lon="103.0216503"><ele>3171.64</ele><time>2025-11-21T21:09:54.000Z</time></trkpt>
        <trkpt lat="29.3501103" lon="103.0216687"><ele>3170.97</ele><time>2025-11-21T21:10:04.000Z</time></trkpt>
        <trkpt lat="29.3502328" lon="103.0216585"><ele>3169.48</ele><time>2025-11-21T21:10:14.000Z</time></trkpt>
        <trkpt lat="29.3502927" lon="103.0216594"><ele>3168.05</ele><time>2025-11-21T21:10:20.000Z</time></trkpt>
        <trkpt lat="29.3502927" lon="103.0216594"><ele>3168.05</ele><time>2025-11-21T21:10:49.000Z</time></trkpt>
        <trkpt lat="29.3502927" lon="103.0216594"><ele>3168.05</ele><time>2025-11-21T21:10:53.000Z</time></trkpt>
        <trkpt lat="29.3502927" lon="103.0216594"><ele>3168.05</ele><time>2025-11-21T21:12:23.000Z</time></trkpt>
        <trkpt lat="29.3502927" lon="103.0216594"><ele>3168.05</ele><time>2025-11-21T21:18:55.000Z</time></trkpt>
        <trkpt lat="29.3502927" lon="103.0216594"><ele>3168.05</ele><time>2025-11-21T21:19:11.000Z</time></trkpt>
        <trkpt lat="29.3502927" lon="103.0216594"><ele>3168.05</ele><time>2025-11-21T21:19:19.000Z</time></trkpt>
        <trkpt lat="29.3502927" lon="103.0216594"><ele>3168.05</ele><time>2025-11-21T21:20:13.000Z</time></trkpt>
        <trkpt lat="29.3501839" lon="103.0216706"><ele>3167.29</ele><time>2025-11-21T21:20:37.000Z</time></trkpt>
        <trkpt lat="29.3501839" lon="103.0216706"><ele>3167.29</ele><time>2025-11-21T21:20:50.000Z</time></trkpt>
        <trkpt lat="29.3500907" lon="103.0216636"><ele>3169.16</ele><time>2025-11-21T21:20:58.000Z</time></trkpt>
        <trkpt lat="29.3500007" lon="103.0216975"><ele>3170.69</ele><time>2025-11-21T21:21:06.000Z</time></trkpt>
        <trkpt lat="29.3499093" lon="103.0217005"><ele>3172.39</ele><time>2025-11-21T21:21:14.000Z</time></trkpt>
        <trkpt lat="29.3498159" lon="103.021649"><ele>3174.14</ele><time>2025-11-21T21:21:24.000Z</time></trkpt>
        <trkpt lat="29.3497206" lon="103.0216657"><ele>3175.13</ele><time>2025-11-21T21:21:43.000Z</time></trkpt>
        <trkpt lat="29.3496319" lon="103.0217196"><ele>3175.28</ele><time>2025-11-21T21:21:53.000Z</time></trkpt>
        <trkpt lat="29.3495366" lon="103.0217565"><ele>3177.28</ele><time>2025-11-21T21:22:03.000Z</time></trkpt>
        <trkpt lat="29.3494409" lon="103.0217575"><ele>3179.35</ele><time>2025-11-21T21:22:11.000Z</time></trkpt>
        <trkpt lat="29.3493638" lon="103.021804"><ele>3181.52</ele><time>2025-11-21T21:22:19.000Z</time></trkpt>
        <trkpt lat="29.3492653" lon="103.0218248"><ele>3183.39</ele><time>2025-11-21T21:22:29.000Z</time></trkpt>
        <trkpt lat="29.3491717" lon="103.0218447"><ele>3184.97</ele><time>2025-11-21T21:22:37.000Z</time></trkpt>
        <trkpt lat="29.3490847" lon="103.0218819"><ele>3185.58</ele><time>2025-11-21T21:22:45.000Z</time></trkpt>
        <trkpt lat="29.3489856" lon="103.0219113"><ele>3185.21</ele><time>2025-11-21T21:22:53.000Z</time></trkpt>
        <trkpt lat="29.3488892" lon="103.0219696"><ele>3185.27</ele><time>2025-11-21T21:23:01.000Z</time></trkpt>
        <trkpt lat="29.3487849" lon="103.0219877"><ele>3184.67</ele><time>2025-11-21T21:23:09.000Z</time></trkpt>
        <trkpt lat="29.3486741" lon="103.0219991"><ele>3184.76</ele><time>2025-11-21T21:23:17.000Z</time></trkpt>
        <trkpt lat="29.3485669" lon="103.0219939"><ele>3185.38</ele><time>2025-11-21T21:23:25.000Z</time></trkpt>
        <trkpt lat="29.3484624" lon="103.0220006"><ele>3185.21</ele><time>2025-11-21T21:23:33.000Z</time></trkpt>
        <trkpt lat="29.3483508" lon="103.0220048"><ele>3184.96</ele><time>2025-11-21T21:23:41.000Z</time></trkpt>
        <trkpt lat="29.3482359" lon="103.0220244"><ele>3184.72</ele><time>2025-11-21T21:23:49.000Z</time></trkpt>
        <trkpt lat="29.3481169" lon="103.0220393"><ele>3184.5</ele><time>2025-11-21T21:23:57.000Z</time></trkpt>
        <trkpt lat="29.3480065" lon="103.0220064"><ele>3184.07</ele><time>2025-11-21T21:24:05.000Z</time></trkpt>
        <trkpt lat="29.3478953" lon="103.0219976"><ele>3183.94</ele><time>2025-11-21T21:24:13.000Z</time></trkpt>
        <trkpt lat="29.347801" lon="103.0219845"><ele>3184.15</ele><time>2025-11-21T21:24:19.000Z</time></trkpt>
        <trkpt lat="29.3477039" lon="103.0219484"><ele>3184.14</ele><time>2025-11-21T21:24:25.000Z</time></trkpt>
        <trkpt lat="29.3476217" lon="103.0218642"><ele>3184.1</ele><time>2025-11-21T21:24:35.000Z</time></trkpt>
        <trkpt lat="29.3475589" lon="103.0217617"><ele>3181.71</ele><time>2025-11-21T21:24:43.000Z</time></trkpt>
        <trkpt lat="29.3474931" lon="103.0216715"><ele>3178.65</ele><time>2025-11-21T21:24:51.000Z</time></trkpt>
        <trkpt lat="29.3474158" lon="103.0216099"><ele>3176.27</ele><time>2025-11-21T21:24:59.000Z</time></trkpt>
        <trkpt lat="29.347332" lon="103.021562"><ele>3175.32</ele><time>2025-11-21T21:25:07.000Z</time></trkpt>
        <trkpt lat="29.3472307" lon="103.021577"><ele>3175.01</ele><time>2025-11-21T21:25:17.000Z</time></trkpt>
        <trkpt lat="29.3471305" lon="103.0215644"><ele>3174.11</ele><time>2025-11-21T21:25:25.000Z</time></trkpt>
        <trkpt lat="29.3470331" lon="103.021538"><ele>3174.9</ele><time>2025-11-21T21:25:33.000Z</time></trkpt>
        <trkpt lat="29.3469295" lon="103.0215257"><ele>3174.99</ele><time>2025-11-21T21:25:41.000Z</time></trkpt>
        <trkpt lat="29.3468217" lon="103.0215235"><ele>3174.74</ele><time>2025-11-21T21:25:47.000Z</time></trkpt>
        <trkpt lat="29.3467305" lon="103.0215646"><ele>3175.52</ele><time>2025-11-21T21:25:57.000Z</time></trkpt>
        <trkpt lat="29.3466434" lon="103.0216059"><ele>3174.87</ele><time>2025-11-21T21:26:05.000Z</time></trkpt>
        <trkpt lat="29.3465754" lon="103.0216761"><ele>3173.42</ele><time>2025-11-21T21:26:13.000Z</time></trkpt>
        <trkpt lat="29.3464821" lon="103.0217128"><ele>3171.6</ele><time>2025-11-21T21:26:23.000Z</time></trkpt>
        <trkpt lat="29.3463896" lon="103.0217691"><ele>3169.98</ele><time>2025-11-21T21:26:31.000Z</time></trkpt>
        <trkpt lat="29.3462969" lon="103.0217868"><ele>3168.61</ele><time>2025-11-21T21:26:37.000Z</time></trkpt>
        <trkpt lat="29.3462011" lon="103.0217597"><ele>3167.17</ele><time>2025-11-21T21:26:45.000Z</time></trkpt>
        <trkpt lat="29.3461123" lon="103.0217931"><ele>3165.49</ele><time>2025-11-21T21:26:53.000Z</time></trkpt>
        <trkpt lat="29.3460239" lon="103.0218492"><ele>3162.84</ele><time>2025-11-21T21:27:03.000Z</time></trkpt>
        <trkpt lat="29.3459582" lon="103.0219307"><ele>3162.18</ele><time>2025-11-21T21:27:13.000Z</time></trkpt>
        <trkpt lat="29.345892" lon="103.0220245"><ele>3161.42</ele><time>2025-11-21T21:27:23.000Z</time></trkpt>
        <trkpt lat="29.34582" lon="103.0220999"><ele>3161.05</ele><time>2025-11-21T21:27:31.000Z</time></trkpt>
        <trkpt lat="29.3457384" lon="103.0221821"><ele>3159.07</ele><time>2025-11-21T21:27:38.000Z</time></trkpt>
        <trkpt lat="29.3456415" lon="103.0222606"><ele>3157.52</ele><time>2025-11-21T21:27:49.000Z</time></trkpt>
        <trkpt lat="29.3455453" lon="103.0223113"><ele>3156.81</ele><time>2025-11-21T21:27:57.000Z</time></trkpt>
        <trkpt lat="29.3454479" lon="103.0223366"><ele>3156.7</ele><time>2025-11-21T21:28:07.000Z</time></trkpt>
        <trkpt lat="29.3453544" lon="103.0223744"><ele>3157.93</ele><time>2025-11-21T21:28:15.000Z</time></trkpt>
        <trkpt lat="29.3452602" lon="103.0224109"><ele>3159.55</ele><time>2025-11-21T21:28:23.000Z</time></trkpt>
        <trkpt lat="29.3451592" lon="103.0224487"><ele>3160.89</ele><time>2025-11-21T21:28:31.000Z</time></trkpt>
        <trkpt lat="29.3450772" lon="103.0225191"><ele>3162.37</ele><time>2025-11-21T21:28:39.000Z</time></trkpt>
        <trkpt lat="29.3450264" lon="103.0226305"><ele>3162.61</ele><time>2025-11-21T21:28:47.000Z</time></trkpt>
        <trkpt lat="29.3449787" lon="103.0227433"><ele>3162.51</ele><time>2025-11-21T21:28:55.000Z</time></trkpt>
        <trkpt lat="29.3448967" lon="103.0228023"><ele>3162.23</ele><time>2025-11-21T21:29:03.000Z</time></trkpt>
        <trkpt lat="29.3447998" lon="103.0227996"><ele>3161.91</ele><time>2025-11-21T21:29:11.000Z</time></trkpt>
        <trkpt lat="29.3446964" lon="103.0227885"><ele>3162.23</ele><time>2025-11-21T21:29:19.000Z</time></trkpt>
        <trkpt lat="29.3446069" lon="103.0228606"><ele>3161.87</ele><time>2025-11-21T21:29:27.000Z</time></trkpt>
        <trkpt lat="29.3445096" lon="103.0229077"><ele>3161.18</ele><time>2025-11-21T21:29:35.000Z</time></trkpt>
        <trkpt lat="29.3444166" lon="103.022919"><ele>3161.12</ele><time>2025-11-21T21:29:41.000Z</time></trkpt>
        <trkpt lat="29.3443165" lon="103.0228873"><ele>3160.24</ele><time>2025-11-21T21:29:49.000Z</time></trkpt>
        <trkpt lat="29.3442202" lon="103.0228954"><ele>3159.62</ele><time>2025-11-21T21:29:57.000Z</time></trkpt>
        <trkpt lat="29.3441587" lon="103.0229634"><ele>3160.57</ele><time>2025-11-21T21:30:05.000Z</time></trkpt>
        <trkpt lat="29.3440805" lon="103.0230333"><ele>3159.59</ele><time>2025-11-21T21:30:13.000Z</time></trkpt>
        <trkpt lat="29.3439857" lon="103.0230834"><ele>3158.85</ele><time>2025-11-21T21:30:21.000Z</time></trkpt>
        <trkpt lat="29.3438883" lon="103.0231017"><ele>3159.35</ele><time>2025-11-21T21:30:29.000Z</time></trkpt>
        <trkpt lat="29.3437902" lon="103.0231221"><ele>3159.32</ele><time>2025-11-21T21:30:37.000Z</time></trkpt>
        <trkpt lat="29.3436954" lon="103.0231572"><ele>3159.6</ele><time>2025-11-21T21:30:45.000Z</time></trkpt>
        <trkpt lat="29.3436237" lon="103.023241"><ele>3158.1</ele><time>2025-11-21T21:30:53.000Z</time></trkpt>
        <trkpt lat="29.3435646" lon="103.0233532"><ele>3157.24</ele><time>2025-11-21T21:31:01.000Z</time></trkpt>
        <trkpt lat="29.3434872" lon="103.0234404"><ele>3156.09</ele><time>2025-11-21T21:31:09.000Z</time></trkpt>
        <trkpt lat="29.3434132" lon="103.0235279"><ele>3154.65</ele><time>2025-11-21T21:31:17.000Z</time></trkpt>
        <trkpt lat="29.3433555" lon="103.0236194"><ele>3154.1</ele><time>2025-11-21T21:31:27.000Z</time></trkpt>
        <trkpt lat="29.3432858" lon="103.0237061"><ele>3154.37</ele><time>2025-11-21T21:31:37.000Z</time></trkpt>
        <trkpt lat="29.3432696" lon="103.0238114"><ele>3155.23</ele><time>2025-11-21T21:31:47.000Z</time></trkpt>
        <trkpt lat="29.3433272" lon="103.0239107"><ele>3155.35</ele><time>2025-11-21T21:31:57.000Z</time></trkpt>
        <trkpt lat="29.3433461" lon="103.0240213"><ele>3155.72</ele><time>2025-11-21T21:32:07.000Z</time></trkpt>
        <trkpt lat="29.3433528" lon="103.0241364"><ele>3156.97</ele><time>2025-11-21T21:32:17.000Z</time></trkpt>
        <trkpt lat="29.3433689" lon="103.0242492"><ele>3158.39</ele><time>2025-11-21T21:32:27.000Z</time></trkpt>
        <trkpt lat="29.3433841" lon="103.0243567"><ele>3159.64</ele><time>2025-11-21T21:32:37.000Z</time></trkpt>
        <trkpt lat="29.3434038" lon="103.0244662"><ele>3161.73</ele><time>2025-11-21T21:32:51.000Z</time></trkpt>
        <trkpt lat="29.3434155" lon="103.0245781"><ele>3161.56</ele><time>2025-11-21T21:33:03.000Z</time></trkpt>
        <trkpt lat="29.3434139" lon="103.0246941"><ele>3160.44</ele><time>2025-11-21T21:33:13.000Z</time></trkpt>
        <trkpt lat="29.3434028" lon="103.0247589"><ele>3159.13</ele><time>2025-11-21T21:33:17.000Z</time></trkpt>
        <trkpt lat="29.3434205" lon="103.02485"><ele>3158.28</ele><time>2025-11-21T21:33:27.000Z</time></trkpt>
        <trkpt lat="29.3434277" lon="103.0249509"><ele>3158.37</ele><time>2025-11-21T21:33:37.000Z</time></trkpt>
        <trkpt lat="29.3433995" lon="103.0250499"><ele>3158.68</ele><time>2025-11-21T21:33:49.000Z</time></trkpt>
        <trkpt lat="29.3433248" lon="103.0251236"><ele>3158.92</ele><time>2025-11-21T21:34:01.000Z</time></trkpt>
        <trkpt lat="29.343225" lon="103.0251576"><ele>3158.92</ele><time>2025-11-21T21:34:13.000Z</time></trkpt>
        <trkpt lat="29.343121" lon="103.0251804"><ele>3159.21</ele><time>2025-11-21T21:34:25.000Z</time></trkpt>
        <trkpt lat="29.3430289" lon="103.025224"><ele>3159.44</ele><time>2025-11-21T21:34:33.000Z</time></trkpt>
        <trkpt lat="29.3429586" lon="103.0252312"><ele>3159.89</ele><time>2025-11-21T21:34:49.000Z</time></trkpt>
        <trkpt lat="29.3430143" lon="103.0252036"><ele>3160.16</ele><time>2025-11-21T21:34:58.000Z</time></trkpt>
        <trkpt lat="29.3431171" lon="103.0251583"><ele>3160.05</ele><time>2025-11-21T21:35:06.000Z</time></trkpt>
        <trkpt lat="29.3431682" lon="103.0251397"><ele>3159.89</ele><time>2025-11-21T21:35:10.000Z</time></trkpt>
        <trkpt lat="29.3431597" lon="103.0250586"><ele>3160.34</ele><time>2025-11-21T21:35:34.000Z</time></trkpt>
        <trkpt lat="29.3430995" lon="103.0249794"><ele>3163.13</ele><time>2025-11-21T21:36:04.000Z</time></trkpt>
        <trkpt lat="29.343079" lon="103.0248768"><ele>3166.58</ele><time>2025-11-21T21:36:20.000Z</time></trkpt>
        <trkpt lat="29.3430377" lon="103.0247722"><ele>3169.27</ele><time>2025-11-21T21:36:32.000Z</time></trkpt>
        <trkpt lat="29.3429689" lon="103.0246892"><ele>3171.59</ele><time>2025-11-21T21:36:52.000Z</time></trkpt>
        <trkpt lat="29.3429564" lon="103.0246551"><ele>3173.41</ele><time>2025-11-21T21:36:56.000Z</time></trkpt>
        <trkpt lat="29.3429564" lon="103.0246551"><ele>3173.41</ele><time>2025-11-21T21:36:56.000Z</time></trkpt>
      </trkseg>
  </trk>
</gpx>